<?xml version='1.0' encoding='UTF-8'?><gpx version="1.1" creator="JPX - https://github.com/jenetics/jpx" xmlns="http://www.topografix.com/GPX/1/1"><trk><trkseg><trkpt lat="43.77402" lon="11.2578567"><ele>62.0</ele><time>2026-04-10T09:44:45.919Z</time></trkpt><trkpt lat="43.7741167" lon="11.2578417"><ele>62.0</ele><time>2026-04-10T09:45:19.918Z</time></trkpt><trkpt lat="43.774175" lon="11.257795"><ele>62.0</ele><time>2026-04-10T09:45:24.918Z</time></trkpt><trkpt lat="43.7742517" lon="11.2576633"><ele>62.0</ele><time>2026-04-10T09:45:29.918Z</time></trkpt><trkpt lat="43.77432" lon="11.2575717"><ele>62.0</ele><time>2026-04-10T09:45:32.918Z</time></trkpt><trkpt lat="43.7743483" lon="11.2574833"><ele>62.00000000000001</ele><time>2026-04-10T09:45:34.918Z</time></trkpt><trkpt lat="43.774365" lon="11.2573733"><ele>62.0</ele><time>2026-04-10T09:45:36.918Z</time></trkpt><trkpt lat="43.77438" lon="11.257255"><ele>62.0</ele><time>2026-04-10T09:45:38.918Z</time></trkpt><trkpt lat="43.77442" lon="11.25716"><ele>62.0</ele><time>2026-04-10T09:45:40.918Z</time></trkpt><trkpt lat="43.7744517" lon="11.257065"><ele>62.00000000000001</ele><time>2026-04-10T09:45:42.918Z</time></trkpt><trkpt lat="43.774485" lon="11.2569633"><ele>62.0</ele><time>2026-04-10T09:45:44.918Z</time></trkpt><trkpt lat="43.7745083" lon="11.2568583"><ele>61.833333333333336</ele><time>2026-04-10T09:45:46.918Z</time></trkpt><trkpt lat="43.7745267" lon="11.256745"><ele>61.66666666666667</ele><time>2026-04-10T09:45:48.918Z</time></trkpt><trkpt lat="43.774555" lon="11.25663"><ele>61.5</ele><time>2026-04-10T09:45:50.918Z</time></trkpt><trkpt lat="43.774615" lon="11.256535"><ele>61.33333333333333</ele><time>2026-04-10T09:45:53.919Z</time></trkpt><trkpt lat="43.7746733" lon="11.2564717"><ele>61.166666666666664</ele><time>2026-04-10T09:45:56.918Z</time></trkpt><trkpt lat="43.7746967" lon="11.2563583"><ele>61.0</ele><time>2026-04-10T09:45:59.918Z</time></trkpt><trkpt lat="43.7747067" lon="11.2562567"><ele>60.99999999999999</ele><time>2026-04-10T09:46:01.919Z</time></trkpt><trkpt lat="43.7747367" lon="11.25615"><ele>61.0</ele><time>2026-04-10T09:46:03.918Z</time></trkpt><trkpt lat="43.7747667" lon="11.2560583"><ele>61.0</ele><time>2026-04-10T09:46:05.918Z</time></trkpt><trkpt lat="43.7747767" lon="11.255945"><ele>61.0</ele><time>2026-04-10T09:46:07.919Z</time></trkpt><trkpt lat="43.774785" lon="11.2558383"><ele>60.99999999999999</ele><time>2026-04-10T09:46:10.918Z</time></trkpt><trkpt lat="43.7748133" lon="11.2557383"><ele>61.0</ele><time>2026-04-10T09:46:13.919Z</time></trkpt><trkpt lat="43.774865" lon="11.25565"><ele>60.71428571428571</ele><time>2026-04-10T09:46:16.918Z</time></trkpt><trkpt lat="43.774935" lon="11.2556"><ele>60.42857142857143</ele><time>2026-04-10T09:46:20.919Z</time></trkpt><trkpt lat="43.77498" lon="11.2555283"><ele>60.14285714285714</ele><time>2026-04-10T09:46:23.918Z</time></trkpt><trkpt lat="43.7750283" lon="11.255455"><ele>59.857142857142854</ele><time>2026-04-10T09:46:27.918Z</time></trkpt><trkpt lat="43.7750833" lon="11.2554117"><ele>59.57142857142857</ele><time>2026-04-10T09:46:33.918Z</time></trkpt><trkpt lat="43.7750633" lon="11.2553183"><ele>59.285714285714285</ele><time>2026-04-10T09:46:37.918Z</time></trkpt><trkpt lat="43.7750683" lon="11.2552217"><ele>59.0</ele><time>2026-04-10T09:46:40.918Z</time></trkpt><trkpt lat="43.7750167" lon="11.2551533"><ele>59.0</ele><time>2026-04-10T09:46:44.918Z</time></trkpt><trkpt lat="43.7750033" lon="11.255065"><ele>59.0</ele><time>2026-04-10T09:46:50.918Z</time></trkpt><trkpt lat="43.77504" lon="11.25499"><ele>59.0</ele><time>2026-04-10T09:46:53.918Z</time></trkpt><trkpt lat="43.77507" lon="11.2549067"><ele>59.0</ele><time>2026-04-10T09:46:56.918Z</time></trkpt><trkpt lat="43.775095" lon="11.254785"><ele>59.0</ele><time>2026-04-10T09:46:59.919Z</time></trkpt><trkpt lat="43.77513" lon="11.2546867"><ele>59.0</ele><time>2026-04-10T09:47:02.918Z</time></trkpt><trkpt lat="43.77516" lon="11.2545917"><ele>59.0</ele><time>2026-04-10T09:47:04.919Z</time></trkpt><trkpt lat="43.7751917" lon="11.2545"><ele>58.66666666666667</ele><time>2026-04-10T09:47:06.918Z</time></trkpt><trkpt lat="43.7752217" lon="11.2544"><ele>58.333333333333336</ele><time>2026-04-10T09:47:09.918Z</time></trkpt><trkpt lat="43.7752683" lon="11.25429"><ele>58.0</ele><time>2026-04-10T09:47:12.918Z</time></trkpt><trkpt lat="43.7753117" lon="11.2541783"><ele>57.66666666666667</ele><time>2026-04-10T09:47:15.918Z</time></trkpt><trkpt lat="43.7753683" lon="11.2540767"><ele>57.333333333333336</ele><time>2026-04-10T09:47:18.918Z</time></trkpt><trkpt lat="43.7754117" lon="11.2539817"><ele>57.0</ele><time>2026-04-10T09:47:21.919Z</time></trkpt><trkpt lat="43.775435" lon="11.2538917"><ele>56.833333333333336</ele><time>2026-04-10T09:47:24.918Z</time></trkpt><trkpt lat="43.7754533" lon="11.2537917"><ele>56.66666666666667</ele><time>2026-04-10T09:47:27.918Z</time></trkpt><trkpt lat="43.77546" lon="11.2536583"><ele>56.5</ele><time>2026-04-10T09:47:30.918Z</time></trkpt><trkpt lat="43.7754133" lon="11.2535517"><ele>56.333333333333336</ele><time>2026-04-10T09:47:32.918Z</time></trkpt><trkpt lat="43.7753617" lon="11.2534667"><ele>56.16666666666667</ele><time>2026-04-10T09:47:34.918Z</time></trkpt><trkpt lat="43.7753167" lon="11.2533883"><ele>56.0</ele><time>2026-04-10T09:47:36.918Z</time></trkpt><trkpt lat="43.775275" lon="11.2533183"><ele>56.00000000000001</ele><time>2026-04-10T09:47:38.919Z</time></trkpt><trkpt lat="43.7752233" lon="11.2532567"><ele>56.0</ele><time>2026-04-10T09:47:40.919Z</time></trkpt><trkpt lat="43.7751783" lon="11.2531933"><ele>56.0</ele><time>2026-04-10T09:47:42.918Z</time></trkpt><trkpt lat="43.7751167" lon="11.2531017"><ele>56.0</ele><time>2026-04-10T09:47:45.918Z</time></trkpt><trkpt lat="43.7750367" lon="11.253035"><ele>56.00000000000001</ele><time>2026-04-10T09:47:48.918Z</time></trkpt><trkpt lat="43.7749633" lon="11.2529767"><ele>56.0</ele><time>2026-04-10T09:47:51.918Z</time></trkpt><trkpt lat="43.77491" lon="11.2529033"><ele>55.857142857142854</ele><time>2026-04-10T09:47:57.918Z</time></trkpt><trkpt lat="43.7748617" lon="11.252845"><ele>55.714285714285715</ele><time>2026-04-10T09:48:02.918Z</time></trkpt><trkpt lat="43.7748017" lon="11.2527933"><ele>55.57142857142857</ele><time>2026-04-10T09:48:05.918Z</time></trkpt><trkpt lat="43.77476" lon="11.2527183"><ele>55.42857142857143</ele><time>2026-04-10T09:48:08.919Z</time></trkpt><trkpt lat="43.77477" lon="11.2526067"><ele>55.285714285714285</ele><time>2026-04-10T09:48:10.919Z</time></trkpt><trkpt lat="43.7747667" lon="11.2525017"><ele>55.14285714285714</ele><time>2026-04-10T09:48:13.918Z</time></trkpt><trkpt lat="43.774785" lon="11.2524017"><ele>55.0</ele><time>2026-04-10T09:48:16.919Z</time></trkpt><trkpt lat="43.77482" lon="11.2522867"><ele>54.99999999999999</ele><time>2026-04-10T09:48:19.918Z</time></trkpt><trkpt lat="43.7748" lon="11.252155"><ele>55.0</ele><time>2026-04-10T09:48:22.919Z</time></trkpt><trkpt lat="43.7747683" lon="11.2520617"><ele>55.0</ele><time>2026-04-10T09:48:24.918Z</time></trkpt><trkpt lat="43.77475" lon="11.2519667"><ele>55.0</ele><time>2026-04-10T09:48:26.918Z</time></trkpt><trkpt lat="43.77474" lon="11.2518583"><ele>54.99999999999999</ele><time>2026-04-10T09:48:28.918Z</time></trkpt><trkpt lat="43.7747433" lon="11.251755"><ele>55.0</ele><time>2026-04-10T09:48:30.918Z</time></trkpt><trkpt lat="43.7747433" lon="11.2516667"><ele>54.99999999999999</ele><time>2026-04-10T09:48:32.918Z</time></trkpt><trkpt lat="43.77475" lon="11.2515633"><ele>55.0</ele><time>2026-04-10T09:48:34.919Z</time></trkpt><trkpt lat="43.7747817" lon="11.25148"><ele>55.0</ele><time>2026-04-10T09:48:36.918Z</time></trkpt><trkpt lat="43.7748033" lon="11.2513833"><ele>55.0</ele><time>2026-04-10T09:48:39.919Z</time></trkpt><trkpt lat="43.7748233" lon="11.2512633"><ele>54.99999999999999</ele><time>2026-04-10T09:48:42.918Z</time></trkpt><trkpt lat="43.7748467" lon="11.2511483"><ele>55.0</ele><time>2026-04-10T09:48:45.919Z</time></trkpt><trkpt lat="43.7748517" lon="11.2510267"><ele>55.14285714285714</ele><time>2026-04-10T09:48:48.918Z</time></trkpt><trkpt lat="43.7748417" lon="11.2509333"><ele>55.285714285714285</ele><time>2026-04-10T09:48:50.918Z</time></trkpt><trkpt lat="43.77481" lon="11.25085"><ele>55.42857142857143</ele><time>2026-04-10T09:48:52.919Z</time></trkpt><trkpt lat="43.7747683" lon="11.2507717"><ele>55.57142857142857</ele><time>2026-04-10T09:48:54.918Z</time></trkpt><trkpt lat="43.77473" lon="11.2506917"><ele>55.714285714285715</ele><time>2026-04-10T09:48:56.918Z</time></trkpt><trkpt lat="43.7747" lon="11.2506067"><ele>55.857142857142854</ele><time>2026-04-10T09:48:58.918Z</time></trkpt><trkpt lat="43.77466" lon="11.250525"><ele>56.0</ele><time>2026-04-10T09:49:00.918Z</time></trkpt><trkpt lat="43.774625" lon="11.2504117"><ele>55.333333333333336</ele><time>2026-04-10T09:49:03.919Z</time></trkpt><trkpt lat="43.7746317" lon="11.2502867"><ele>54.66666666666667</ele><time>2026-04-10T09:49:06.918Z</time></trkpt><trkpt lat="43.7746533" lon="11.2502033"><ele>54.0</ele><time>2026-04-10T09:49:08.918Z</time></trkpt><trkpt lat="43.7746733" lon="11.2500883"><ele>53.33333333333333</ele><time>2026-04-10T09:49:11.918Z</time></trkpt><trkpt lat="43.7746833" lon="11.24997"><ele>52.666666666666664</ele><time>2026-04-10T09:49:14.917Z</time></trkpt><trkpt lat="43.7746417" lon="11.2498933"><ele>52.0</ele><time>2026-04-10T09:49:19.917Z</time></trkpt><trkpt lat="43.7745667" lon="11.249885"><ele>51.99999999999999</ele><time>2026-04-10T09:49:22.918Z</time></trkpt><trkpt lat="43.7745033" lon="11.249905"><ele>52.0</ele><time>2026-04-10T09:49:26.917Z</time></trkpt><trkpt lat="43.7744167" lon="11.24991"><ele>52.0</ele><time>2026-04-10T09:49:30.917Z</time></trkpt><trkpt lat="43.7743317" lon="11.249875"><ele>52.0</ele><time>2026-04-10T09:49:33.917Z</time></trkpt><trkpt lat="43.7742633" lon="11.2498667"><ele>51.99999999999999</ele><time>2026-04-10T09:49:35.918Z</time></trkpt><trkpt lat="43.7741783" lon="11.2498733"><ele>52.0</ele><time>2026-04-10T09:49:38.917Z</time></trkpt><trkpt lat="43.7740983" lon="11.24986"><ele>52.166666666666664</ele><time>2026-04-10T09:49:41.917Z</time></trkpt><trkpt lat="43.7740067" lon="11.2498433"><ele>52.33333333333333</ele><time>2026-04-10T09:49:44.917Z</time></trkpt><trkpt lat="43.7739433" lon="11.249815"><ele>52.5</ele><time>2026-04-10T09:49:46.918Z</time></trkpt><trkpt lat="43.773875" lon="11.2498"><ele>52.66666666666667</ele><time>2026-04-10T09:49:48.917Z</time></trkpt><trkpt lat="43.7737967" lon="11.2497917"><ele>52.833333333333336</ele><time>2026-04-10T09:49:50.917Z</time></trkpt><trkpt lat="43.7737233" lon="11.2497767"><ele>53.0</ele><time>2026-04-10T09:49:52.918Z</time></trkpt><trkpt lat="43.7736517" lon="11.2497633"><ele>53.0</ele><time>2026-04-10T09:49:54.917Z</time></trkpt><trkpt lat="43.7735817" lon="11.24975"><ele>53.0</ele><time>2026-04-10T09:49:56.917Z</time></trkpt><trkpt lat="43.77351" lon="11.2497317"><ele>53.0</ele><time>2026-04-10T09:49:58.918Z</time></trkpt><trkpt lat="43.77344" lon="11.249715"><ele>53.0</ele><time>2026-04-10T09:50:00.918Z</time></trkpt><trkpt lat="43.7733667" lon="11.2496983"><ele>53.0</ele><time>2026-04-10T09:50:02.917Z</time></trkpt><trkpt lat="43.7732933" lon="11.2496733"><ele>53.0</ele><time>2026-04-10T09:50:04.918Z</time></trkpt><trkpt lat="43.7732217" lon="11.24966"><ele>53.0</ele><time>2026-04-10T09:50:06.917Z</time></trkpt><trkpt lat="43.7731517" lon="11.2496383"><ele>53.142857142857146</ele><time>2026-04-10T09:50:08.918Z</time></trkpt><trkpt lat="43.7730817" lon="11.2495983"><ele>53.285714285714285</ele><time>2026-04-10T09:50:10.917Z</time></trkpt><trkpt lat="43.7730133" lon="11.24955"><ele>53.42857142857143</ele><time>2026-04-10T09:50:12.917Z</time></trkpt><trkpt lat="43.7729417" lon="11.2495333"><ele>53.57142857142857</ele><time>2026-04-10T09:50:14.917Z</time></trkpt><trkpt lat="43.7728783" lon="11.2495083"><ele>53.71428571428571</ele><time>2026-04-10T09:50:16.917Z</time></trkpt><trkpt lat="43.7728083" lon="11.2494783"><ele>53.857142857142854</ele><time>2026-04-10T09:50:18.918Z</time></trkpt><trkpt lat="43.77274" lon="11.2494433"><ele>54.0</ele><time>2026-04-10T09:50:20.917Z</time></trkpt><trkpt lat="43.7726767" lon="11.2494033"><ele>54.666666666666664</ele><time>2026-04-10T09:50:22.917Z</time></trkpt><trkpt lat="43.772615" lon="11.2493683"><ele>55.33333333333333</ele><time>2026-04-10T09:50:24.917Z</time></trkpt><trkpt lat="43.77254" lon="11.2493083"><ele>56.0</ele><time>2026-04-10T09:50:27.917Z</time></trkpt><trkpt lat="43.7724417" lon="11.249305"><ele>56.666666666666664</ele><time>2026-04-10T09:50:30.917Z</time></trkpt><trkpt lat="43.7723783" lon="11.2492817"><ele>57.33333333333333</ele><time>2026-04-10T09:50:32.917Z</time></trkpt><trkpt lat="43.77241" lon="11.2491533"><ele>58.0</ele><time>2026-04-10T09:50:34.918Z</time></trkpt><trkpt lat="43.7724633" lon="11.2490517"><ele>57.99999999999999</ele><time>2026-04-10T09:50:36.918Z</time></trkpt><trkpt lat="43.7725167" lon="11.24897"><ele>58.0</ele><time>2026-04-10T09:50:38.917Z</time></trkpt><trkpt lat="43.7725867" lon="11.2489017"><ele>58.0</ele><time>2026-04-10T09:50:40.917Z</time></trkpt><trkpt lat="43.7726417" lon="11.2488"><ele>58.0</ele><time>2026-04-10T09:50:42.918Z</time></trkpt><trkpt lat="43.77267" lon="11.2486733"><ele>57.99999999999999</ele><time>2026-04-10T09:50:44.917Z</time></trkpt><trkpt lat="43.7726917" lon="11.2485533"><ele>58.0</ele><time>2026-04-10T09:50:46.917Z</time></trkpt><trkpt lat="43.77272" lon="11.2484367"><ele>57.666666666666664</ele><time>2026-04-10T09:50:48.918Z</time></trkpt><trkpt lat="43.7727567" lon="11.248335"><ele>57.33333333333333</ele><time>2026-04-10T09:50:50.917Z</time></trkpt><trkpt lat="43.77281" lon="11.2482467"><ele>57.0</ele><time>2026-04-10T09:50:52.917Z</time></trkpt><trkpt lat="43.772855" lon="11.2481533"><ele>56.66666666666667</ele><time>2026-04-10T09:50:54.917Z</time></trkpt><trkpt lat="43.77288" lon="11.2480617"><ele>56.333333333333336</ele><time>2026-04-10T09:50:56.917Z</time></trkpt><trkpt lat="43.7729317" lon="11.2479617"><ele>56.0</ele><time>2026-04-10T09:50:58.918Z</time></trkpt><trkpt lat="43.7729683" lon="11.2478717"><ele>55.66666666666667</ele><time>2026-04-10T09:51:00.918Z</time></trkpt><trkpt lat="43.7730117" lon="11.24779"><ele>55.333333333333336</ele><time>2026-04-10T09:51:02.917Z</time></trkpt><trkpt lat="43.773065" lon="11.2477033"><ele>55.0</ele><time>2026-04-10T09:51:05.917Z</time></trkpt><trkpt lat="43.7731283" lon="11.2476517"><ele>54.66666666666667</ele><time>2026-04-10T09:51:08.917Z</time></trkpt><trkpt lat="43.7731817" lon="11.2475617"><ele>54.333333333333336</ele><time>2026-04-10T09:51:12.917Z</time></trkpt><trkpt lat="43.7732117" lon="11.2474683"><ele>54.0</ele><time>2026-04-10T09:51:15.917Z</time></trkpt><trkpt lat="43.7732517" lon="11.24736"><ele>54.0</ele><time>2026-04-10T09:51:18.918Z</time></trkpt><trkpt lat="43.7733133" lon="11.247265"><ele>54.0</ele><time>2026-04-10T09:51:21.917Z</time></trkpt><trkpt lat="43.773355" lon="11.2471833"><ele>54.0</ele><time>2026-04-10T09:51:23.917Z</time></trkpt><trkpt lat="43.7733967" lon="11.2470867"><ele>54.0</ele><time>2026-04-10T09:51:25.917Z</time></trkpt><trkpt lat="43.7734317" lon="11.2469867"><ele>54.0</ele><time>2026-04-10T09:51:27.917Z</time></trkpt><trkpt lat="43.7734817" lon="11.2469"><ele>54.0</ele><time>2026-04-10T09:51:29.917Z</time></trkpt><trkpt lat="43.77353" lon="11.2467867"><ele>54.0</ele><time>2026-04-10T09:51:32.917Z</time></trkpt><trkpt lat="43.7735633" lon="11.2466967"><ele>54.0</ele><time>2026-04-10T09:51:34.918Z</time></trkpt><trkpt lat="43.7735967" lon="11.2465917"><ele>54.0</ele><time>2026-04-10T09:51:36.917Z</time></trkpt><trkpt lat="43.77365" lon="11.2464983"><ele>54.0</ele><time>2026-04-10T09:51:38.918Z</time></trkpt><trkpt lat="43.7737" lon="11.2464183"><ele>54.0</ele><time>2026-04-10T09:51:40.917Z</time></trkpt><trkpt lat="43.7737467" lon="11.2463467"><ele>54.0</ele><time>2026-04-10T09:51:42.917Z</time></trkpt><trkpt lat="43.7738" lon="11.2462583"><ele>53.5</ele><time>2026-04-10T09:51:44.917Z</time></trkpt><trkpt lat="43.77384" lon="11.2461567"><ele>53.0</ele><time>2026-04-10T09:51:46.917Z</time></trkpt><trkpt lat="43.773885" lon="11.2460633"><ele>52.5</ele><time>2026-04-10T09:51:48.918Z</time></trkpt><trkpt lat="43.7739283" lon="11.24596"><ele>52.0</ele><time>2026-04-10T09:51:50.917Z</time></trkpt><trkpt lat="43.7739667" lon="11.24586"><ele>51.5</ele><time>2026-04-10T09:51:52.917Z</time></trkpt><trkpt lat="43.7740217" lon="11.24576"><ele>51.0</ele><time>2026-04-10T09:51:54.918Z</time></trkpt><trkpt lat="43.77407" lon="11.2456567"><ele>50.833333333333336</ele><time>2026-04-10T09:51:56.917Z</time></trkpt><trkpt lat="43.774115" lon="11.24556"><ele>50.66666666666667</ele><time>2026-04-10T09:51:58.918Z</time></trkpt><trkpt lat="43.774155" lon="11.2454717"><ele>50.5</ele><time>2026-04-10T09:52:00.917Z</time></trkpt><trkpt lat="43.7741983" lon="11.245395"><ele>50.333333333333336</ele><time>2026-04-10T09:52:02.917Z</time></trkpt><trkpt lat="43.7742433" lon="11.245305"><ele>50.16666666666667</ele><time>2026-04-10T09:52:04.917Z</time></trkpt><trkpt lat="43.7742867" lon="11.2452067"><ele>50.0</ele><time>2026-04-10T09:52:06.917Z</time></trkpt><trkpt lat="43.7743367" lon="11.2451133"><ele>50.16666666666667</ele><time>2026-04-10T09:52:08.918Z</time></trkpt><trkpt lat="43.77438" lon="11.245015"><ele>50.333333333333336</ele><time>2026-04-10T09:52:10.917Z</time></trkpt><trkpt lat="43.7744283" lon="11.2449133"><ele>50.5</ele><time>2026-04-10T09:52:12.918Z</time></trkpt><trkpt lat="43.774475" lon="11.2448267"><ele>50.66666666666667</ele><time>2026-04-10T09:52:14.917Z</time></trkpt><trkpt lat="43.7745183" lon="11.244745"><ele>50.833333333333336</ele><time>2026-04-10T09:52:16.918Z</time></trkpt><trkpt lat="43.7745633" lon="11.244655"><ele>51.0</ele><time>2026-04-10T09:52:18.917Z</time></trkpt><trkpt lat="43.7745967" lon="11.2445717"><ele>51.0</ele><time>2026-04-10T09:52:20.917Z</time></trkpt><trkpt lat="43.7746333" lon="11.2444933"><ele>51.0</ele><time>2026-04-10T09:52:22.917Z</time></trkpt><trkpt lat="43.7746733" lon="11.2444017"><ele>51.0</ele><time>2026-04-10T09:52:24.917Z</time></trkpt><trkpt lat="43.7747167" lon="11.2443083"><ele>51.0</ele><time>2026-04-10T09:52:26.917Z</time></trkpt><trkpt lat="43.7747583" lon="11.244225"><ele>51.0</ele><time>2026-04-10T09:52:28.918Z</time></trkpt><trkpt lat="43.7747933" lon="11.2441317"><ele>51.0</ele><time>2026-04-10T09:52:30.917Z</time></trkpt><trkpt lat="43.7748383" lon="11.2440317"><ele>50.714285714285715</ele><time>2026-04-10T09:52:32.917Z</time></trkpt><trkpt lat="43.7748767" lon="11.2439317"><ele>50.42857142857143</ele><time>2026-04-10T09:52:34.917Z</time></trkpt><trkpt lat="43.7749033" lon="11.2438283"><ele>50.14285714285714</ele><time>2026-04-10T09:52:36.917Z</time></trkpt><trkpt lat="43.774915" lon="11.2437333"><ele>49.85714285714286</ele><time>2026-04-10T09:52:39.917Z</time></trkpt><trkpt lat="43.774965" lon="11.2436767"><ele>49.57142857142857</ele><time>2026-04-10T09:52:42.917Z</time></trkpt><trkpt lat="43.7750267" lon="11.2435867"><ele>49.285714285714285</ele><time>2026-04-10T09:52:45.917Z</time></trkpt><trkpt lat="43.77506" lon="11.2435117"><ele>49.0</ele><time>2026-04-10T09:52:47.917Z</time></trkpt><trkpt lat="43.7751033" lon="11.243445"><ele>49.0</ele><time>2026-04-10T09:52:49.917Z</time></trkpt><trkpt lat="43.7751433" lon="11.243375"><ele>49.0</ele><time>2026-04-10T09:52:51.918Z</time></trkpt><trkpt lat="43.7752017" lon="11.2432917"><ele>49.0</ele><time>2026-04-10T09:52:54.917Z</time></trkpt><trkpt lat="43.7752417" lon="11.2432217"><ele>49.0</ele><time>2026-04-10T09:52:56.917Z</time></trkpt><trkpt lat="43.7752833" lon="11.2431317"><ele>49.0</ele><time>2026-04-10T09:52:58.917Z</time></trkpt><trkpt lat="43.77533" lon="11.2430533"><ele>49.0</ele><time>2026-04-10T09:53:00.918Z</time></trkpt><trkpt lat="43.7753767" lon="11.2429567"><ele>49.0</ele><time>2026-04-10T09:53:02.917Z</time></trkpt><trkpt lat="43.7754133" lon="11.2428733"><ele>49.166666666666664</ele><time>2026-04-10T09:53:04.918Z</time></trkpt><trkpt lat="43.7754567" lon="11.24277"><ele>49.33333333333333</ele><time>2026-04-10T09:53:07.918Z</time></trkpt><trkpt lat="43.775485" lon="11.2426683"><ele>49.5</ele><time>2026-04-10T09:53:10.917Z</time></trkpt><trkpt lat="43.7755183" lon="11.2425517"><ele>49.66666666666667</ele><time>2026-04-10T09:53:13.917Z</time></trkpt><trkpt lat="43.7755533" lon="11.2424633"><ele>49.833333333333336</ele><time>2026-04-10T09:53:15.917Z</time></trkpt><trkpt lat="43.7756017" lon="11.2423883"><ele>50.0</ele><time>2026-04-10T09:53:17.917Z</time></trkpt><trkpt lat="43.7756583" lon="11.2423117"><ele>50.00000000000001</ele><time>2026-04-10T09:53:19.917Z</time></trkpt><trkpt lat="43.7757117" lon="11.2422383"><ele>50.0</ele><time>2026-04-10T09:53:21.918Z</time></trkpt><trkpt lat="43.7757667" lon="11.242165"><ele>50.0</ele><time>2026-04-10T09:53:23.918Z</time></trkpt><trkpt lat="43.7758167" lon="11.2420917"><ele>50.0</ele><time>2026-04-10T09:53:25.917Z</time></trkpt><trkpt lat="43.775865" lon="11.2420233"><ele>50.0</ele><time>2026-04-10T09:53:27.917Z</time></trkpt><trkpt lat="43.7759133" lon="11.2419533"><ele>50.00000000000001</ele><time>2026-04-10T09:53:29.917Z</time></trkpt><trkpt lat="43.7759633" lon="11.24189"><ele>50.0</ele><time>2026-04-10T09:53:31.917Z</time></trkpt><trkpt lat="43.7760217" lon="11.2418317"><ele>50.00000000000001</ele><time>2026-04-10T09:53:33.917Z</time></trkpt><trkpt lat="43.7760817" lon="11.2417767"><ele>50.0</ele><time>2026-04-10T09:53:35.918Z</time></trkpt><trkpt lat="43.77614" lon="11.2417283"><ele>50.0</ele><time>2026-04-10T09:53:37.918Z</time></trkpt><trkpt lat="43.7761967" lon="11.2416833"><ele>50.0</ele><time>2026-04-10T09:53:39.917Z</time></trkpt><trkpt lat="43.776245" lon="11.24162"><ele>50.0</ele><time>2026-04-10T09:53:41.917Z</time></trkpt><trkpt lat="43.7762967" lon="11.2415633"><ele>50.00000000000001</ele><time>2026-04-10T09:53:43.917Z</time></trkpt><trkpt lat="43.7763633" lon="11.2414667"><ele>50.0</ele><time>2026-04-10T09:53:46.918Z</time></trkpt><trkpt lat="43.776415" lon="11.241415"><ele>50.00000000000001</ele><time>2026-04-10T09:53:48.917Z</time></trkpt><trkpt lat="43.7764733" lon="11.2413817"><ele>50.0</ele><time>2026-04-10T09:53:50.918Z</time></trkpt><trkpt lat="43.7765267" lon="11.241335"><ele>50.0</ele><time>2026-04-10T09:53:52.918Z</time></trkpt><trkpt lat="43.7765633" lon="11.2412467"><ele>50.0</ele><time>2026-04-10T09:53:55.917Z</time></trkpt><trkpt lat="43.7766017" lon="11.24116"><ele>50.0</ele><time>2026-04-10T09:53:58.917Z</time></trkpt><trkpt lat="43.7766733" lon="11.2410717"><ele>50.00000000000001</ele><time>2026-04-10T09:54:01.917Z</time></trkpt><trkpt lat="43.7767283" lon="11.241015"><ele>50.0</ele><time>2026-04-10T09:54:03.918Z</time></trkpt><trkpt lat="43.776775" lon="11.2409467"><ele>50.00000000000001</ele><time>2026-04-10T09:54:05.917Z</time></trkpt><trkpt lat="43.7768233" lon="11.2408767"><ele>50.0</ele><time>2026-04-10T09:54:07.917Z</time></trkpt><trkpt lat="43.776875" lon="11.240805"><ele>50.0</ele><time>2026-04-10T09:54:09.917Z</time></trkpt><trkpt lat="43.7769183" lon="11.24073"><ele>50.0</ele><time>2026-04-10T09:54:12.918Z</time></trkpt><trkpt lat="43.7768467" lon="11.2407533"><ele>50.00000000000001</ele><time>2026-04-10T09:54:17.918Z</time></trkpt><trkpt lat="43.7768017" lon="11.2408217"><ele>50.0</ele><time>2026-04-10T09:54:26.918Z</time></trkpt><trkpt lat="43.7767783" lon="11.240995"><ele>50.00000000000001</ele><time>2026-04-10T09:55:40.916Z</time></trkpt><trkpt lat="43.7768417" lon="11.2409533"><ele>50.0</ele><time>2026-04-10T09:56:41.916Z</time></trkpt><trkpt lat="43.7769" lon="11.24091"><ele>50.0</ele><time>2026-04-10T09:56:44.916Z</time></trkpt><trkpt lat="43.7769467" lon="11.24085"><ele>50.0</ele><time>2026-04-10T09:56:47.916Z</time></trkpt><trkpt lat="43.77694" lon="11.2407533"><ele>50.0</ele><time>2026-04-10T09:56:51.916Z</time></trkpt><trkpt lat="43.7769" lon="11.2406833"><ele>50.00000000000001</ele><time>2026-04-10T09:56:53.916Z</time></trkpt><trkpt lat="43.7768467" lon="11.2406133"><ele>50.0</ele><time>2026-04-10T09:56:55.916Z</time></trkpt><trkpt lat="43.7767817" lon="11.240575"><ele>50.142857142857146</ele><time>2026-04-10T09:56:57.916Z</time></trkpt><trkpt lat="43.7767233" lon="11.24053"><ele>50.285714285714285</ele><time>2026-04-10T09:56:59.916Z</time></trkpt><trkpt lat="43.7766683" lon="11.2404733"><ele>50.42857142857143</ele><time>2026-04-10T09:57:01.916Z</time></trkpt><trkpt lat="43.7766133" lon="11.2404217"><ele>50.57142857142857</ele><time>2026-04-10T09:57:03.916Z</time></trkpt><trkpt lat="43.776545" lon="11.2403533"><ele>50.714285714285715</ele><time>2026-04-10T09:57:06.916Z</time></trkpt><trkpt lat="43.7764917" lon="11.240305"><ele>50.85714285714286</ele><time>2026-04-10T09:57:09.916Z</time></trkpt><trkpt lat="43.7764467" lon="11.2402433"><ele>51.0</ele><time>2026-04-10T09:57:12.916Z</time></trkpt><trkpt lat="43.7763817" lon="11.240185"><ele>51.0</ele><time>2026-04-10T09:57:15.917Z</time></trkpt><trkpt lat="43.7763133" lon="11.2401233"><ele>51.0</ele><time>2026-04-10T09:57:18.916Z</time></trkpt><trkpt lat="43.7762533" lon="11.2400283"><ele>51.0</ele><time>2026-04-10T09:57:21.917Z</time></trkpt><trkpt lat="43.776185" lon="11.2399517"><ele>51.0</ele><time>2026-04-10T09:57:24.917Z</time></trkpt><trkpt lat="43.7761317" lon="11.2399"><ele>51.0</ele><time>2026-04-10T09:57:26.916Z</time></trkpt><trkpt lat="43.7760583" lon="11.2398567"><ele>51.0</ele><time>2026-04-10T09:57:29.916Z</time></trkpt><trkpt lat="43.7760033" lon="11.2397717"><ele>51.333333333333336</ele><time>2026-04-10T09:57:32.916Z</time></trkpt><trkpt lat="43.7759183" lon="11.2397133"><ele>51.66666666666667</ele><time>2026-04-10T09:57:35.916Z</time></trkpt><trkpt lat="43.7758383" lon="11.239655"><ele>52.0</ele><time>2026-04-10T09:57:38.916Z</time></trkpt><trkpt lat="43.775775" lon="11.23962"><ele>52.333333333333336</ele><time>2026-04-10T09:57:40.917Z</time></trkpt><trkpt lat="43.7757117" lon="11.2395917"><ele>52.66666666666667</ele><time>2026-04-10T09:57:42.916Z</time></trkpt><trkpt lat="43.7756833" lon="11.23951"><ele>53.0</ele><time>2026-04-10T09:57:44.917Z</time></trkpt><trkpt lat="43.7756583" lon="11.2394217"><ele>53.00000000000001</ele><time>2026-04-10T09:57:46.916Z</time></trkpt><trkpt lat="43.7756617" lon="11.23933"><ele>53.0</ele><time>2026-04-10T09:57:48.917Z</time></trkpt><trkpt lat="43.7757067" lon="11.239235"><ele>53.0</ele><time>2026-04-10T09:57:51.916Z</time></trkpt><trkpt lat="43.77576" lon="11.2391383"><ele>53.0</ele><time>2026-04-10T09:57:54.917Z</time></trkpt><trkpt lat="43.7758183" lon="11.23903"><ele>53.00000000000001</ele><time>2026-04-10T09:57:57.916Z</time></trkpt><trkpt lat="43.7758533" lon="11.2389467"><ele>53.0</ele><time>2026-04-10T09:57:59.917Z</time></trkpt><trkpt lat="43.7758967" lon="11.238875"><ele>53.333333333333336</ele><time>2026-04-10T09:58:01.916Z</time></trkpt><trkpt lat="43.775955" lon="11.2387817"><ele>53.66666666666667</ele><time>2026-04-10T09:58:04.917Z</time></trkpt><trkpt lat="43.776" lon="11.2386783"><ele>54.0</ele><time>2026-04-10T09:58:07.916Z</time></trkpt><trkpt lat="43.7760517" lon="11.2385767"><ele>54.33333333333333</ele><time>2026-04-10T09:58:10.916Z</time></trkpt><trkpt lat="43.776095" lon="11.2385"><ele>54.666666666666664</ele><time>2026-04-10T09:58:12.916Z</time></trkpt><trkpt lat="43.7761283" lon="11.23841"><ele>55.0</ele><time>2026-04-10T09:58:14.916Z</time></trkpt><trkpt lat="43.776165" lon="11.2383367"><ele>54.42857142857142</ele><time>2026-04-10T09:58:16.917Z</time></trkpt><trkpt lat="43.776205" lon="11.2382633"><ele>53.857142857142854</ele><time>2026-04-10T09:58:18.916Z</time></trkpt><trkpt lat="43.7762467" lon="11.2381967"><ele>53.285714285714285</ele><time>2026-04-10T09:58:20.916Z</time></trkpt><trkpt lat="43.7762867" lon="11.2381233"><ele>52.71428571428571</ele><time>2026-04-10T09:58:22.916Z</time></trkpt><trkpt lat="43.7763267" lon="11.2380533"><ele>52.142857142857146</ele><time>2026-04-10T09:58:24.916Z</time></trkpt><trkpt lat="43.776365" lon="11.23795"><ele>51.57142857142857</ele><time>2026-04-10T09:58:28.917Z</time></trkpt><trkpt lat="43.77635" lon="11.237865"><ele>51.0</ele><time>2026-04-10T09:58:31.916Z</time></trkpt><trkpt lat="43.7763967" lon="11.2377767"><ele>50.333333333333336</ele><time>2026-04-10T09:58:35.916Z</time></trkpt><trkpt lat="43.7764083" lon="11.2376583"><ele>49.666666666666664</ele><time>2026-04-10T09:58:38.916Z</time></trkpt><trkpt lat="43.7763767" lon="11.23756"><ele>49.0</ele><time>2026-04-10T09:58:41.916Z</time></trkpt><trkpt lat="43.7763333" lon="11.2374667"><ele>48.33333333333333</ele><time>2026-04-10T09:58:44.916Z</time></trkpt><trkpt lat="43.7762933" lon="11.2373683"><ele>47.666666666666664</ele><time>2026-04-10T09:58:47.916Z</time></trkpt><trkpt lat="43.7762283" lon="11.2373067"><ele>47.0</ele><time>2026-04-10T09:58:50.915Z</time></trkpt><trkpt lat="43.7761567" lon="11.2372283"><ele>47.0</ele><time>2026-04-10T09:58:53.915Z</time></trkpt><trkpt lat="43.7760733" lon="11.2371817"><ele>47.0</ele><time>2026-04-10T09:58:56.915Z</time></trkpt><trkpt lat="43.7760133" lon="11.23715"><ele>47.0</ele><time>2026-04-10T09:58:58.915Z</time></trkpt><trkpt lat="43.7759383" lon="11.2370917"><ele>47.0</ele><time>2026-04-10T09:59:01.915Z</time></trkpt><trkpt lat="43.7758817" lon="11.2370383"><ele>47.0</ele><time>2026-04-10T09:59:03.915Z</time></trkpt><trkpt lat="43.775825" lon="11.2369867"><ele>47.0</ele><time>2026-04-10T09:59:05.915Z</time></trkpt><trkpt lat="43.7757633" lon="11.2368883"><ele>47.0</ele><time>2026-04-10T09:59:08.915Z</time></trkpt><trkpt lat="43.7757733" lon="11.2367683"><ele>47.0</ele><time>2026-04-10T09:59:11.915Z</time></trkpt><trkpt lat="43.77581" lon="11.236665"><ele>47.0</ele><time>2026-04-10T09:59:14.915Z</time></trkpt><trkpt lat="43.7758367" lon="11.2365683"><ele>47.0</ele><time>2026-04-10T09:59:17.915Z</time></trkpt><trkpt lat="43.7758667" lon="11.23647"><ele>47.0</ele><time>2026-04-10T09:59:20.915Z</time></trkpt><trkpt lat="43.77588" lon="11.2363717"><ele>47.0</ele><time>2026-04-10T09:59:23.915Z</time></trkpt><trkpt lat="43.7759017" lon="11.23628"><ele>46.83333333333333</ele><time>2026-04-10T09:59:26.915Z</time></trkpt><trkpt lat="43.77593" lon="11.2361867"><ele>46.666666666666664</ele><time>2026-04-10T09:59:29.915Z</time></trkpt><trkpt lat="43.7759617" lon="11.236095"><ele>46.5</ele><time>2026-04-10T09:59:32.916Z</time></trkpt><trkpt lat="43.7760033" lon="11.2360117"><ele>46.333333333333336</ele><time>2026-04-10T09:59:35.915Z</time></trkpt><trkpt lat="43.7760467" lon="11.235905"><ele>46.16666666666667</ele><time>2026-04-10T09:59:38.915Z</time></trkpt><trkpt lat="43.776075" lon="11.2358133"><ele>46.0</ele><time>2026-04-10T09:59:40.915Z</time></trkpt><trkpt lat="43.7760767" lon="11.2357167"><ele>45.66666666666667</ele><time>2026-04-10T09:59:42.915Z</time></trkpt><trkpt lat="43.776045" lon="11.235605"><ele>45.333333333333336</ele><time>2026-04-10T09:59:45.915Z</time></trkpt><trkpt lat="43.776065" lon="11.23549"><ele>45.0</ele><time>2026-04-10T09:59:48.915Z</time></trkpt><trkpt lat="43.7760783" lon="11.2354033"><ele>44.666666666666664</ele><time>2026-04-10T09:59:50.915Z</time></trkpt><trkpt lat="43.776085" lon="11.235275"><ele>44.33333333333333</ele><time>2026-04-10T09:59:53.915Z</time></trkpt><trkpt lat="43.77608" lon="11.235185"><ele>44.0</ele><time>2026-04-10T09:59:55.916Z</time></trkpt><trkpt lat="43.7760867" lon="11.2350533"><ele>44.0</ele><time>2026-04-10T09:59:58.916Z</time></trkpt><trkpt lat="43.77607" lon="11.2349617"><ele>44.0</ele><time>2026-04-10T10:00:00.915Z</time></trkpt><trkpt lat="43.7760417" lon="11.2348717"><ele>44.0</ele><time>2026-04-10T10:00:02.915Z</time></trkpt><trkpt lat="43.7760033" lon="11.2347867"><ele>44.0</ele><time>2026-04-10T10:00:04.915Z</time></trkpt><trkpt lat="43.77595" lon="11.2346767"><ele>44.0</ele><time>2026-04-10T10:00:07.915Z</time></trkpt><trkpt lat="43.775915" lon="11.2345983"><ele>44.0</ele><time>2026-04-10T10:00:09.915Z</time></trkpt><trkpt lat="43.7758717" lon="11.2344983"><ele>44.0</ele><time>2026-04-10T10:00:12.915Z</time></trkpt><trkpt lat="43.7758517" lon="11.23441"><ele>44.0</ele><time>2026-04-10T10:00:14.916Z</time></trkpt><trkpt lat="43.7758383" lon="11.2343067"><ele>44.0</ele><time>2026-04-10T10:00:16.915Z</time></trkpt><trkpt lat="43.775835" lon="11.2341833"><ele>44.0</ele><time>2026-04-10T10:00:18.915Z</time></trkpt><trkpt lat="43.77585" lon="11.234065"><ele>44.0</ele><time>2026-04-10T10:00:20.915Z</time></trkpt><trkpt lat="43.775865" lon="11.23395"><ele>44.0</ele><time>2026-04-10T10:00:22.915Z</time></trkpt><trkpt lat="43.77588" lon="11.2338383"><ele>43.83333333333333</ele><time>2026-04-10T10:00:24.915Z</time></trkpt><trkpt lat="43.7759" lon="11.2337233"><ele>43.666666666666664</ele><time>2026-04-10T10:00:26.916Z</time></trkpt><trkpt lat="43.7759117" lon="11.233615"><ele>43.5</ele><time>2026-04-10T10:00:28.915Z</time></trkpt><trkpt lat="43.7759333" lon="11.2335233"><ele>43.333333333333336</ele><time>2026-04-10T10:00:30.915Z</time></trkpt><trkpt lat="43.775975" lon="11.2334183"><ele>43.16666666666667</ele><time>2026-04-10T10:00:33.915Z</time></trkpt><trkpt lat="43.7760067" lon="11.233305"><ele>43.0</ele><time>2026-04-10T10:00:36.915Z</time></trkpt><trkpt lat="43.7760417" lon="11.2331833"><ele>44.16666666666667</ele><time>2026-04-10T10:00:39.915Z</time></trkpt><trkpt lat="43.776065" lon="11.2330883"><ele>45.333333333333336</ele><time>2026-04-10T10:00:41.916Z</time></trkpt><trkpt lat="43.7760817" lon="11.233"><ele>46.5</ele><time>2026-04-10T10:00:43.915Z</time></trkpt><trkpt lat="43.7761267" lon="11.23289"><ele>47.66666666666667</ele><time>2026-04-10T10:00:46.915Z</time></trkpt><trkpt lat="43.7761567" lon="11.2328083"><ele>48.833333333333336</ele><time>2026-04-10T10:00:48.915Z</time></trkpt><trkpt lat="43.7761967" lon="11.232705"><ele>50.0</ele><time>2026-04-10T10:00:51.915Z</time></trkpt><trkpt lat="43.776195" lon="11.232595"><ele>50.00000000000001</ele><time>2026-04-10T10:00:54.915Z</time></trkpt><trkpt lat="43.7761283" lon="11.2326283"><ele>50.0</ele><time>2026-04-10T10:00:58.915Z</time></trkpt><trkpt lat="43.776085" lon="11.2327333"><ele>50.0</ele><time>2026-04-10T10:01:01.916Z</time></trkpt><trkpt lat="43.7760617" lon="11.2328367"><ele>50.0</ele><time>2026-04-10T10:01:04.916Z</time></trkpt><trkpt lat="43.776045" lon="11.232935"><ele>50.00000000000001</ele><time>2026-04-10T10:01:08.915Z</time></trkpt><trkpt lat="43.7761183" lon="11.2329033"><ele>50.0</ele><time>2026-04-10T10:01:14.915Z</time></trkpt><trkpt lat="43.7761433" lon="11.2328133"><ele>50.0</ele><time>2026-04-10T10:01:17.916Z</time></trkpt><trkpt lat="43.7761917" lon="11.2327067"><ele>50.0</ele><time>2026-04-10T10:01:21.915Z</time></trkpt><trkpt lat="43.7762483" lon="11.232605"><ele>50.0</ele><time>2026-04-10T10:01:24.915Z</time></trkpt><trkpt lat="43.7762833" lon="11.2324817"><ele>50.0</ele><time>2026-04-10T10:01:27.915Z</time></trkpt><trkpt lat="43.7763183" lon="11.23235"><ele>50.0</ele><time>2026-04-10T10:01:30.915Z</time></trkpt><trkpt lat="43.7763383" lon="11.23225"><ele>49.66666666666667</ele><time>2026-04-10T10:01:32.916Z</time></trkpt><trkpt lat="43.7763633" lon="11.2321417"><ele>49.333333333333336</ele><time>2026-04-10T10:01:34.915Z</time></trkpt><trkpt lat="43.7763983" lon="11.2320367"><ele>49.0</ele><time>2026-04-10T10:01:36.916Z</time></trkpt><trkpt lat="43.776425" lon="11.2319333"><ele>48.66666666666667</ele><time>2026-04-10T10:01:38.916Z</time></trkpt><trkpt lat="43.77645" lon="11.231835"><ele>48.333333333333336</ele><time>2026-04-10T10:01:40.915Z</time></trkpt><trkpt lat="43.77647" lon="11.2317433"><ele>48.0</ele><time>2026-04-10T10:01:42.915Z</time></trkpt><trkpt lat="43.7764933" lon="11.2316583"><ele>48.0</ele><time>2026-04-10T10:01:44.916Z</time></trkpt><trkpt lat="43.7765117" lon="11.2315717"><ele>48.0</ele><time>2026-04-10T10:01:46.915Z</time></trkpt><trkpt lat="43.77655" lon="11.2314517"><ele>48.0</ele><time>2026-04-10T10:01:49.915Z</time></trkpt><trkpt lat="43.7765783" lon="11.231345"><ele>48.0</ele><time>2026-04-10T10:01:52.915Z</time></trkpt><trkpt lat="43.7766133" lon="11.2312533"><ele>48.0</ele><time>2026-04-10T10:01:54.916Z</time></trkpt><trkpt lat="43.7766367" lon="11.2311583"><ele>48.0</ele><time>2026-04-10T10:01:56.915Z</time></trkpt><trkpt lat="43.7766633" lon="11.2310533"><ele>48.0</ele><time>2026-04-10T10:01:58.916Z</time></trkpt><trkpt lat="43.7766983" lon="11.2309517"><ele>48.0</ele><time>2026-04-10T10:02:00.916Z</time></trkpt><trkpt lat="43.776735" lon="11.2308517"><ele>48.0</ele><time>2026-04-10T10:02:02.915Z</time></trkpt><trkpt lat="43.7767683" lon="11.2307433"><ele>48.0</ele><time>2026-04-10T10:02:04.916Z</time></trkpt><trkpt lat="43.776805" lon="11.23063"><ele>48.0</ele><time>2026-04-10T10:02:06.915Z</time></trkpt><trkpt lat="43.776835" lon="11.2305133"><ele>48.0</ele><time>2026-04-10T10:02:08.915Z</time></trkpt><trkpt lat="43.776865" lon="11.2304017"><ele>47.99999999999999</ele><time>2026-04-10T10:02:10.915Z</time></trkpt><trkpt lat="43.7768767" lon="11.2303017"><ele>48.0</ele><time>2026-04-10T10:02:12.915Z</time></trkpt><trkpt lat="43.77687" lon="11.2301883"><ele>48.0</ele><time>2026-04-10T10:02:15.915Z</time></trkpt><trkpt lat="43.776885" lon="11.2300917"><ele>48.0</ele><time>2026-04-10T10:02:19.915Z</time></trkpt><trkpt lat="43.776945" lon="11.2300483"><ele>48.0</ele><time>2026-04-10T10:02:23.915Z</time></trkpt><trkpt lat="43.77697" lon="11.229945"><ele>47.99999999999999</ele><time>2026-04-10T10:02:26.915Z</time></trkpt><trkpt lat="43.77695" lon="11.229845"><ele>48.0</ele><time>2026-04-10T10:02:28.915Z</time></trkpt><trkpt lat="43.776895" lon="11.2297783"><ele>47.0</ele><time>2026-04-10T10:02:30.915Z</time></trkpt><trkpt lat="43.77682" lon="11.2297167"><ele>46.0</ele><time>2026-04-10T10:02:33.915Z</time></trkpt><trkpt lat="43.77676" lon="11.2296633"><ele>45.0</ele><time>2026-04-10T10:02:36.914Z</time></trkpt><trkpt lat="43.7766917" lon="11.2296133"><ele>44.0</ele><time>2026-04-10T10:02:40.915Z</time></trkpt><trkpt lat="43.7766167" lon="11.2295617"><ele>43.0</ele><time>2026-04-10T10:02:43.915Z</time></trkpt><trkpt lat="43.7765433" lon="11.229515"><ele>42.0</ele><time>2026-04-10T10:02:46.914Z</time></trkpt><trkpt lat="43.7764767" lon="11.229475"><ele>42.0</ele><time>2026-04-10T10:02:49.914Z</time></trkpt><trkpt lat="43.776405" lon="11.2294133"><ele>42.0</ele><time>2026-04-10T10:02:52.915Z</time></trkpt><trkpt lat="43.77634" lon="11.2293617"><ele>42.0</ele><time>2026-04-10T10:02:55.914Z</time></trkpt><trkpt lat="43.7762767" lon="11.2293183"><ele>42.0</ele><time>2026-04-10T10:02:58.914Z</time></trkpt><trkpt lat="43.7762133" lon="11.2292717"><ele>42.0</ele><time>2026-04-10T10:03:01.914Z</time></trkpt><trkpt lat="43.7761433" lon="11.22922"><ele>42.0</ele><time>2026-04-10T10:03:04.915Z</time></trkpt><trkpt lat="43.77606" lon="11.2291583"><ele>42.0</ele><time>2026-04-10T10:03:07.915Z</time></trkpt><trkpt lat="43.7759917" lon="11.2291017"><ele>42.0</ele><time>2026-04-10T10:03:09.914Z</time></trkpt><trkpt lat="43.7759233" lon="11.2290167"><ele>42.0</ele><time>2026-04-10T10:03:11.914Z</time></trkpt><trkpt lat="43.775875" lon="11.2289167"><ele>42.0</ele><time>2026-04-10T10:03:13.915Z</time></trkpt><trkpt lat="43.77588" lon="11.2288017"><ele>42.0</ele><time>2026-04-10T10:03:15.915Z</time></trkpt><trkpt lat="43.7759167" lon="11.2286917"><ele>42.0</ele><time>2026-04-10T10:03:17.914Z</time></trkpt><trkpt lat="43.7759533" lon="11.2285633"><ele>42.166666666666664</ele><time>2026-04-10T10:03:19.914Z</time></trkpt><trkpt lat="43.7759917" lon="11.228425"><ele>42.333333333333336</ele><time>2026-04-10T10:03:21.915Z</time></trkpt><trkpt lat="43.7760367" lon="11.2283033"><ele>42.5</ele><time>2026-04-10T10:03:23.914Z</time></trkpt><trkpt lat="43.776075" lon="11.228195"><ele>42.66666666666667</ele><time>2026-04-10T10:03:25.915Z</time></trkpt><trkpt lat="43.77611" lon="11.22809"><ele>42.833333333333336</ele><time>2026-04-10T10:03:27.914Z</time></trkpt><trkpt lat="43.7761417" lon="11.2280033"><ele>43.0</ele><time>2026-04-10T10:03:29.914Z</time></trkpt><trkpt lat="43.776165" lon="11.2279217"><ele>43.00000000000001</ele><time>2026-04-10T10:03:31.914Z</time></trkpt><trkpt lat="43.7762" lon="11.2278083"><ele>43.0</ele><time>2026-04-10T10:03:34.914Z</time></trkpt><trkpt lat="43.7762283" lon="11.2277267"><ele>43.0</ele><time>2026-04-10T10:03:36.914Z</time></trkpt><trkpt lat="43.7762667" lon="11.2276467"><ele>43.0</ele><time>2026-04-10T10:03:38.914Z</time></trkpt><trkpt lat="43.7763" lon="11.2275567"><ele>43.0</ele><time>2026-04-10T10:03:40.914Z</time></trkpt><trkpt lat="43.7763317" lon="11.227465"><ele>43.00000000000001</ele><time>2026-04-10T10:03:42.914Z</time></trkpt><trkpt lat="43.7763567" lon="11.22737"><ele>43.0</ele><time>2026-04-10T10:03:44.914Z</time></trkpt><trkpt lat="43.77638" lon="11.2272717"><ele>42.85714285714286</ele><time>2026-04-10T10:03:46.914Z</time></trkpt><trkpt lat="43.7764033" lon="11.2271817"><ele>42.714285714285715</ele><time>2026-04-10T10:03:48.914Z</time></trkpt><trkpt lat="43.7764283" lon="11.2270783"><ele>42.57142857142857</ele><time>2026-04-10T10:03:50.915Z</time></trkpt><trkpt lat="43.7764633" lon="11.2269733"><ele>42.42857142857143</ele><time>2026-04-10T10:03:52.914Z</time></trkpt><trkpt lat="43.77649" lon="11.2268767"><ele>42.285714285714285</ele><time>2026-04-10T10:03:54.915Z</time></trkpt><trkpt lat="43.7765183" lon="11.22679"><ele>42.142857142857146</ele><time>2026-04-10T10:03:56.914Z</time></trkpt><trkpt lat="43.776545" lon="11.2266933"><ele>42.0</ele><time>2026-04-10T10:03:58.914Z</time></trkpt><trkpt lat="43.7765833" lon="11.226595"><ele>42.0</ele><time>2026-04-10T10:04:00.914Z</time></trkpt><trkpt lat="43.77661" lon="11.2265067"><ele>42.0</ele><time>2026-04-10T10:04:02.914Z</time></trkpt><trkpt lat="43.7766417" lon="11.22641"><ele>42.0</ele><time>2026-04-10T10:04:04.914Z</time></trkpt><trkpt lat="43.7766683" lon="11.2263183"><ele>42.0</ele><time>2026-04-10T10:04:06.914Z</time></trkpt><trkpt lat="43.7766933" lon="11.2262267"><ele>42.0</ele><time>2026-04-10T10:04:08.915Z</time></trkpt><trkpt lat="43.776725" lon="11.226135"><ele>42.0</ele><time>2026-04-10T10:04:10.914Z</time></trkpt><trkpt lat="43.776755" lon="11.22604"><ele>42.0</ele><time>2026-04-10T10:04:12.914Z</time></trkpt><trkpt lat="43.7767833" lon="11.2259483"><ele>42.0</ele><time>2026-04-10T10:04:14.915Z</time></trkpt><trkpt lat="43.7768083" lon="11.225865"><ele>42.0</ele><time>2026-04-10T10:04:16.915Z</time></trkpt><trkpt lat="43.776835" lon="11.2257767"><ele>42.0</ele><time>2026-04-10T10:04:18.914Z</time></trkpt><trkpt lat="43.776865" lon="11.2256817"><ele>42.0</ele><time>2026-04-10T10:04:20.914Z</time></trkpt><trkpt lat="43.7768867" lon="11.2255817"><ele>42.0</ele><time>2026-04-10T10:04:22.914Z</time></trkpt><trkpt lat="43.7769183" lon="11.2254767"><ele>42.0</ele><time>2026-04-10T10:04:24.914Z</time></trkpt><trkpt lat="43.7769633" lon="11.2253633"><ele>42.0</ele><time>2026-04-10T10:04:26.914Z</time></trkpt><trkpt lat="43.7770033" lon="11.2252767"><ele>42.0</ele><time>2026-04-10T10:04:28.914Z</time></trkpt><trkpt lat="43.7770267" lon="11.2251917"><ele>42.0</ele><time>2026-04-10T10:04:30.914Z</time></trkpt><trkpt lat="43.7770517" lon="11.2251083"><ele>42.0</ele><time>2026-04-10T10:04:32.914Z</time></trkpt><trkpt lat="43.7770767" lon="11.22502"><ele>42.0</ele><time>2026-04-10T10:04:34.914Z</time></trkpt><trkpt lat="43.7771033" lon="11.2249233"><ele>42.0</ele><time>2026-04-10T10:04:36.914Z</time></trkpt><trkpt lat="43.7771317" lon="11.2248283"><ele>42.0</ele><time>2026-04-10T10:04:38.914Z</time></trkpt><trkpt lat="43.7771667" lon="11.2247333"><ele>41.5</ele><time>2026-04-10T10:04:40.914Z</time></trkpt><trkpt lat="43.7772033" lon="11.2246433"><ele>41.0</ele><time>2026-04-10T10:04:42.914Z</time></trkpt><trkpt lat="43.7772367" lon="11.22455"><ele>40.5</ele><time>2026-04-10T10:04:44.914Z</time></trkpt><trkpt lat="43.777255" lon="11.2244467"><ele>40.0</ele><time>2026-04-10T10:04:46.914Z</time></trkpt><trkpt lat="43.7772683" lon="11.224325"><ele>39.5</ele><time>2026-04-10T10:04:49.915Z</time></trkpt><trkpt lat="43.7772933" lon="11.224205"><ele>39.0</ele><time>2026-04-10T10:04:52.914Z</time></trkpt><trkpt lat="43.7773167" lon="11.22412"><ele>39.0</ele><time>2026-04-10T10:04:54.914Z</time></trkpt><trkpt lat="43.7773483" lon="11.2239967"><ele>39.0</ele><time>2026-04-10T10:04:57.914Z</time></trkpt><trkpt lat="43.777365" lon="11.2238717"><ele>39.0</ele><time>2026-04-10T10:05:00.914Z</time></trkpt><trkpt lat="43.7773767" lon="11.2237517"><ele>39.0</ele><time>2026-04-10T10:05:03.915Z</time></trkpt><trkpt lat="43.7774033" lon="11.2236683"><ele>39.0</ele><time>2026-04-10T10:05:05.914Z</time></trkpt><trkpt lat="43.7774333" lon="11.22358"><ele>39.0</ele><time>2026-04-10T10:05:07.915Z</time></trkpt><trkpt lat="43.777465" lon="11.2234883"><ele>39.666666666666664</ele><time>2026-04-10T10:05:09.914Z</time></trkpt><trkpt lat="43.7774933" lon="11.2233917"><ele>40.333333333333336</ele><time>2026-04-10T10:05:11.914Z</time></trkpt><trkpt lat="43.7775317" lon="11.2232933"><ele>41.0</ele><time>2026-04-10T10:05:13.914Z</time></trkpt><trkpt lat="43.777565" lon="11.2232"><ele>41.66666666666667</ele><time>2026-04-10T10:05:15.914Z</time></trkpt><trkpt lat="43.7776017" lon="11.2230917"><ele>42.333333333333336</ele><time>2026-04-10T10:05:17.914Z</time></trkpt><trkpt lat="43.7776333" lon="11.222985"><ele>43.0</ele><time>2026-04-10T10:05:19.914Z</time></trkpt><trkpt lat="43.7776633" lon="11.222895"><ele>43.5</ele><time>2026-04-10T10:05:21.914Z</time></trkpt><trkpt lat="43.7777033" lon="11.2227917"><ele>44.0</ele><time>2026-04-10T10:05:23.915Z</time></trkpt><trkpt lat="43.7777383" lon="11.2226833"><ele>44.5</ele><time>2026-04-10T10:05:25.914Z</time></trkpt><trkpt lat="43.7777717" lon="11.222575"><ele>45.0</ele><time>2026-04-10T10:05:27.914Z</time></trkpt><trkpt lat="43.77781" lon="11.2224717"><ele>45.5</ele><time>2026-04-10T10:05:29.914Z</time></trkpt><trkpt lat="43.7778433" lon="11.2223783"><ele>46.0</ele><time>2026-04-10T10:05:31.914Z</time></trkpt><trkpt lat="43.7778767" lon="11.22228"><ele>46.0</ele><time>2026-04-10T10:05:33.915Z</time></trkpt><trkpt lat="43.77791" lon="11.2221883"><ele>46.0</ele><time>2026-04-10T10:05:35.915Z</time></trkpt><trkpt lat="43.7779517" lon="11.222085"><ele>46.0</ele><time>2026-04-10T10:05:37.914Z</time></trkpt><trkpt lat="43.7779833" lon="11.2219917"><ele>46.0</ele><time>2026-04-10T10:05:39.914Z</time></trkpt><trkpt lat="43.777995" lon="11.221905"><ele>46.0</ele><time>2026-04-10T10:05:41.914Z</time></trkpt><trkpt lat="43.7779917" lon="11.22181"><ele>46.0</ele><time>2026-04-10T10:05:43.914Z</time></trkpt><trkpt lat="43.7780183" lon="11.2217083"><ele>46.0</ele><time>2026-04-10T10:05:45.914Z</time></trkpt><trkpt lat="43.7780667" lon="11.2216033"><ele>46.0</ele><time>2026-04-10T10:05:47.914Z</time></trkpt><trkpt lat="43.77811" lon="11.2215"><ele>46.0</ele><time>2026-04-10T10:05:49.915Z</time></trkpt><trkpt lat="43.7781533" lon="11.2213917"><ele>46.0</ele><time>2026-04-10T10:05:51.914Z</time></trkpt><trkpt lat="43.7781983" lon="11.221285"><ele>46.0</ele><time>2026-04-10T10:05:53.914Z</time></trkpt><trkpt lat="43.778245" lon="11.2211767"><ele>46.0</ele><time>2026-04-10T10:05:55.914Z</time></trkpt><trkpt lat="43.7782833" lon="11.22107"><ele>46.0</ele><time>2026-04-10T10:05:57.915Z</time></trkpt><trkpt lat="43.7783217" lon="11.2209633"><ele>46.0</ele><time>2026-04-10T10:05:59.914Z</time></trkpt><trkpt lat="43.778355" lon="11.22086"><ele>46.0</ele><time>2026-04-10T10:06:01.914Z</time></trkpt><trkpt lat="43.7783933" lon="11.2207567"><ele>46.0</ele><time>2026-04-10T10:06:03.914Z</time></trkpt><trkpt lat="43.7784267" lon="11.2206533"><ele>46.0</ele><time>2026-04-10T10:06:05.913Z</time></trkpt><trkpt lat="43.7784617" lon="11.22055"><ele>46.0</ele><time>2026-04-10T10:06:07.913Z</time></trkpt><trkpt lat="43.7785017" lon="11.22045"><ele>46.0</ele><time>2026-04-10T10:06:09.913Z</time></trkpt><trkpt lat="43.7785367" lon="11.22035"><ele>45.42857142857143</ele><time>2026-04-10T10:06:11.913Z</time></trkpt><trkpt lat="43.7785683" lon="11.22025"><ele>44.857142857142854</ele><time>2026-04-10T10:06:13.913Z</time></trkpt><trkpt lat="43.7786067" lon="11.2201517"><ele>44.285714285714285</ele><time>2026-04-10T10:06:15.913Z</time></trkpt><trkpt lat="43.7786433" lon="11.2200633"><ele>43.714285714285715</ele><time>2026-04-10T10:06:17.913Z</time></trkpt><trkpt lat="43.7786767" lon="11.219975"><ele>43.14285714285714</ele><time>2026-04-10T10:06:19.914Z</time></trkpt><trkpt lat="43.7787117" lon="11.2198933"><ele>42.57142857142857</ele><time>2026-04-10T10:06:21.914Z</time></trkpt><trkpt lat="43.7787333" lon="11.2198067"><ele>42.0</ele><time>2026-04-10T10:06:24.913Z</time></trkpt><trkpt lat="43.7787767" lon="11.2197267"><ele>41.833333333333336</ele><time>2026-04-10T10:06:27.913Z</time></trkpt><trkpt lat="43.7788183" lon="11.21961"><ele>41.666666666666664</ele><time>2026-04-10T10:06:30.913Z</time></trkpt><trkpt lat="43.778855" lon="11.2195183"><ele>41.5</ele><time>2026-04-10T10:06:32.913Z</time></trkpt><trkpt lat="43.77889" lon="11.2194167"><ele>41.33333333333333</ele><time>2026-04-10T10:06:34.914Z</time></trkpt><trkpt lat="43.7789217" lon="11.2193167"><ele>41.166666666666664</ele><time>2026-04-10T10:06:36.913Z</time></trkpt><trkpt lat="43.7789567" lon="11.2192183"><ele>41.0</ele><time>2026-04-10T10:06:38.913Z</time></trkpt><trkpt lat="43.7789933" lon="11.2191233"><ele>41.0</ele><time>2026-04-10T10:06:40.913Z</time></trkpt><trkpt lat="43.7790333" lon="11.219025"><ele>41.0</ele><time>2026-04-10T10:06:42.913Z</time></trkpt><trkpt lat="43.77907" lon="11.2189217"><ele>41.0</ele><time>2026-04-10T10:06:44.913Z</time></trkpt><trkpt lat="43.77911" lon="11.21882"><ele>41.0</ele><time>2026-04-10T10:06:46.913Z</time></trkpt><trkpt lat="43.7791633" lon="11.2187383"><ele>41.0</ele><time>2026-04-10T10:06:48.914Z</time></trkpt><trkpt lat="43.7792367" lon="11.218685"><ele>41.0</ele><time>2026-04-10T10:06:50.913Z</time></trkpt><trkpt lat="43.77929" lon="11.2185967"><ele>41.166666666666664</ele><time>2026-04-10T10:06:52.913Z</time></trkpt><trkpt lat="43.77932" lon="11.2184833"><ele>41.33333333333333</ele><time>2026-04-10T10:06:54.914Z</time></trkpt><trkpt lat="43.7793567" lon="11.2183767"><ele>41.5</ele><time>2026-04-10T10:06:56.913Z</time></trkpt><trkpt lat="43.7794067" lon="11.2182767"><ele>41.666666666666664</ele><time>2026-04-10T10:06:58.913Z</time></trkpt><trkpt lat="43.7794517" lon="11.21818"><ele>41.833333333333336</ele><time>2026-04-10T10:07:00.913Z</time></trkpt><trkpt lat="43.7794683" lon="11.2180733"><ele>42.0</ele><time>2026-04-10T10:07:02.913Z</time></trkpt><trkpt lat="43.7794817" lon="11.2179733"><ele>41.666666666666664</ele><time>2026-04-10T10:07:04.913Z</time></trkpt><trkpt lat="43.77953" lon="11.217885"><ele>41.333333333333336</ele><time>2026-04-10T10:07:06.913Z</time></trkpt><trkpt lat="43.7795883" lon="11.2177967"><ele>41.0</ele><time>2026-04-10T10:07:08.913Z</time></trkpt><trkpt lat="43.7796367" lon="11.2177117"><ele>40.66666666666667</ele><time>2026-04-10T10:07:10.913Z</time></trkpt><trkpt lat="43.779675" lon="11.2176133"><ele>40.333333333333336</ele><time>2026-04-10T10:07:12.913Z</time></trkpt><trkpt lat="43.7797117" lon="11.21751"><ele>40.0</ele><time>2026-04-10T10:07:14.913Z</time></trkpt><trkpt lat="43.779755" lon="11.2173983"><ele>40.16666666666667</ele><time>2026-04-10T10:07:16.914Z</time></trkpt><trkpt lat="43.77977" lon="11.2172933"><ele>40.333333333333336</ele><time>2026-04-10T10:07:18.913Z</time></trkpt><trkpt lat="43.7797467" lon="11.2171967"><ele>40.5</ele><time>2026-04-10T10:07:20.913Z</time></trkpt><trkpt lat="43.7797433" lon="11.2170967"><ele>40.666666666666664</ele><time>2026-04-10T10:07:22.913Z</time></trkpt><trkpt lat="43.7797833" lon="11.2169983"><ele>40.83333333333333</ele><time>2026-04-10T10:07:24.913Z</time></trkpt><trkpt lat="43.77983" lon="11.2168983"><ele>41.0</ele><time>2026-04-10T10:07:26.913Z</time></trkpt><trkpt lat="43.77988" lon="11.216795"><ele>41.0</ele><time>2026-04-10T10:07:28.914Z</time></trkpt><trkpt lat="43.7799233" lon="11.2166783"><ele>41.0</ele><time>2026-04-10T10:07:30.914Z</time></trkpt><trkpt lat="43.7799667" lon="11.2165767"><ele>41.0</ele><time>2026-04-10T10:07:32.913Z</time></trkpt><trkpt lat="43.780015" lon="11.2164667"><ele>41.0</ele><time>2026-04-10T10:07:34.914Z</time></trkpt><trkpt lat="43.7800667" lon="11.2163517"><ele>41.0</ele><time>2026-04-10T10:07:36.913Z</time></trkpt><trkpt lat="43.78011" lon="11.2162467"><ele>41.4</ele><time>2026-04-10T10:07:38.914Z</time></trkpt><trkpt lat="43.7801467" lon="11.2161383"><ele>41.8</ele><time>2026-04-10T10:07:40.913Z</time></trkpt><trkpt lat="43.7801933" lon="11.2160217"><ele>42.199999999999996</ele><time>2026-04-10T10:07:42.913Z</time></trkpt><trkpt lat="43.7802367" lon="11.2159033"><ele>42.599999999999994</ele><time>2026-04-10T10:07:44.914Z</time></trkpt><trkpt lat="43.78028" lon="11.2157883"><ele>43.0</ele><time>2026-04-10T10:07:46.913Z</time></trkpt><trkpt lat="43.780325" lon="11.2156767"><ele>42.199999999999996</ele><time>2026-04-10T10:07:48.913Z</time></trkpt><trkpt lat="43.7803717" lon="11.215565"><ele>41.4</ele><time>2026-04-10T10:07:50.913Z</time></trkpt><trkpt lat="43.78042" lon="11.2154533"><ele>40.599999999999994</ele><time>2026-04-10T10:07:52.913Z</time></trkpt><trkpt lat="43.78047" lon="11.2153483"><ele>39.8</ele><time>2026-04-10T10:07:54.913Z</time></trkpt><trkpt lat="43.7805183" lon="11.2152333"><ele>39.0</ele><time>2026-04-10T10:07:56.913Z</time></trkpt><trkpt lat="43.7805683" lon="11.21513"><ele>39.0</ele><time>2026-04-10T10:07:58.913Z</time></trkpt><trkpt lat="43.780625" lon="11.2150167"><ele>39.0</ele><time>2026-04-10T10:08:00.913Z</time></trkpt><trkpt lat="43.7806767" lon="11.2149033"><ele>39.0</ele><time>2026-04-10T10:08:02.914Z</time></trkpt><trkpt lat="43.7807217" lon="11.2148"><ele>39.0</ele><time>2026-04-10T10:08:04.913Z</time></trkpt><trkpt lat="43.7807733" lon="11.2147"><ele>39.0</ele><time>2026-04-10T10:08:06.913Z</time></trkpt><trkpt lat="43.7808167" lon="11.2146017"><ele>39.166666666666664</ele><time>2026-04-10T10:08:08.913Z</time></trkpt><trkpt lat="43.780865" lon="11.2145083"><ele>39.333333333333336</ele><time>2026-04-10T10:08:10.913Z</time></trkpt><trkpt lat="43.7809067" lon="11.21441"><ele>39.5</ele><time>2026-04-10T10:08:12.913Z</time></trkpt><trkpt lat="43.780955" lon="11.2143167"><ele>39.66666666666667</ele><time>2026-04-10T10:08:14.913Z</time></trkpt><trkpt lat="43.7809967" lon="11.214225"><ele>39.833333333333336</ele><time>2026-04-10T10:08:16.913Z</time></trkpt><trkpt lat="43.78104" lon="11.2141283"><ele>40.0</ele><time>2026-04-10T10:08:18.913Z</time></trkpt><trkpt lat="43.7810833" lon="11.2140383"><ele>39.333333333333336</ele><time>2026-04-10T10:08:20.914Z</time></trkpt><trkpt lat="43.7811233" lon="11.2139533"><ele>38.66666666666667</ele><time>2026-04-10T10:08:22.913Z</time></trkpt><trkpt lat="43.78117" lon="11.2138717"><ele>38.0</ele><time>2026-04-10T10:08:24.914Z</time></trkpt><trkpt lat="43.78122" lon="11.2137917"><ele>37.333333333333336</ele><time>2026-04-10T10:08:26.913Z</time></trkpt><trkpt lat="43.7812667" lon="11.21371"><ele>36.666666666666664</ele><time>2026-04-10T10:08:28.913Z</time></trkpt><trkpt lat="43.7813083" lon="11.2136233"><ele>36.0</ele><time>2026-04-10T10:08:30.913Z</time></trkpt><trkpt lat="43.7813483" lon="11.2135333"><ele>36.00000000000001</ele><time>2026-04-10T10:08:32.914Z</time></trkpt><trkpt lat="43.781385" lon="11.21344"><ele>36.0</ele><time>2026-04-10T10:08:34.913Z</time></trkpt><trkpt lat="43.781425" lon="11.2133517"><ele>36.0</ele><time>2026-04-10T10:08:36.913Z</time></trkpt><trkpt lat="43.781465" lon="11.2132667"><ele>36.0</ele><time>2026-04-10T10:08:38.913Z</time></trkpt><trkpt lat="43.7814983" lon="11.2131883"><ele>36.0</ele><time>2026-04-10T10:08:40.913Z</time></trkpt><trkpt lat="43.7815467" lon="11.2130817"><ele>36.00000000000001</ele><time>2026-04-10T10:08:43.913Z</time></trkpt><trkpt lat="43.78159" lon="11.213015"><ele>36.0</ele><time>2026-04-10T10:08:45.913Z</time></trkpt><trkpt lat="43.7816417" lon="11.21291"><ele>36.5</ele><time>2026-04-10T10:08:48.913Z</time></trkpt><trkpt lat="43.7816867" lon="11.2128083"><ele>37.0</ele><time>2026-04-10T10:08:51.913Z</time></trkpt><trkpt lat="43.7817433" lon="11.212725"><ele>37.5</ele><time>2026-04-10T10:08:54.914Z</time></trkpt><trkpt lat="43.7817983" lon="11.2126283"><ele>38.0</ele><time>2026-04-10T10:08:57.913Z</time></trkpt><trkpt lat="43.7818317" lon="11.212545"><ele>38.5</ele><time>2026-04-10T10:08:59.914Z</time></trkpt><trkpt lat="43.7818733" lon="11.2124483"><ele>39.0</ele><time>2026-04-10T10:09:01.913Z</time></trkpt><trkpt lat="43.78192" lon="11.2123367"><ele>38.0</ele><time>2026-04-10T10:09:03.914Z</time></trkpt><trkpt lat="43.78197" lon="11.2122233"><ele>37.0</ele><time>2026-04-10T10:09:05.913Z</time></trkpt><trkpt lat="43.78202" lon="11.2121183"><ele>36.0</ele><time>2026-04-10T10:09:07.913Z</time></trkpt><trkpt lat="43.782065" lon="11.2120217"><ele>35.0</ele><time>2026-04-10T10:09:09.913Z</time></trkpt><trkpt lat="43.7821017" lon="11.2119317"><ele>34.0</ele><time>2026-04-10T10:09:11.913Z</time></trkpt><trkpt lat="43.7821467" lon="11.21184"><ele>33.0</ele><time>2026-04-10T10:09:13.914Z</time></trkpt><trkpt lat="43.7821967" lon="11.2117433"><ele>33.0</ele><time>2026-04-10T10:09:15.913Z</time></trkpt><trkpt lat="43.7822433" lon="11.21165"><ele>33.0</ele><time>2026-04-10T10:09:17.913Z</time></trkpt><trkpt lat="43.78229" lon="11.2115567"><ele>33.0</ele><time>2026-04-10T10:09:19.913Z</time></trkpt><trkpt lat="43.78233" lon="11.2114483"><ele>33.0</ele><time>2026-04-10T10:09:21.914Z</time></trkpt><trkpt lat="43.7823567" lon="11.2113483"><ele>33.0</ele><time>2026-04-10T10:09:23.913Z</time></trkpt><trkpt lat="43.7823917" lon="11.211245"><ele>33.0</ele><time>2026-04-10T10:09:25.913Z</time></trkpt><trkpt lat="43.7824283" lon="11.2111383"><ele>33.333333333333336</ele><time>2026-04-10T10:09:27.912Z</time></trkpt><trkpt lat="43.7824633" lon="11.2110417"><ele>33.666666666666664</ele><time>2026-04-10T10:09:29.912Z</time></trkpt><trkpt lat="43.7824983" lon="11.2109483"><ele>34.0</ele><time>2026-04-10T10:09:31.913Z</time></trkpt><trkpt lat="43.782535" lon="11.2108617"><ele>34.33333333333333</ele><time>2026-04-10T10:09:33.912Z</time></trkpt><trkpt lat="43.7825867" lon="11.2107917"><ele>34.666666666666664</ele><time>2026-04-10T10:09:35.913Z</time></trkpt><trkpt lat="43.7826383" lon="11.21072"><ele>35.0</ele><time>2026-04-10T10:09:37.912Z</time></trkpt><trkpt lat="43.7826917" lon="11.2106283"><ele>35.0</ele><time>2026-04-10T10:09:39.912Z</time></trkpt><trkpt lat="43.78274" lon="11.2105383"><ele>35.0</ele><time>2026-04-10T10:09:41.912Z</time></trkpt><trkpt lat="43.7827867" lon="11.210445"><ele>35.0</ele><time>2026-04-10T10:09:43.912Z</time></trkpt><trkpt lat="43.78283" lon="11.21035"><ele>35.0</ele><time>2026-04-10T10:09:45.913Z</time></trkpt><trkpt lat="43.7828583" lon="11.2102617"><ele>35.0</ele><time>2026-04-10T10:09:47.912Z</time></trkpt><trkpt lat="43.7828833" lon="11.2101767"><ele>35.0</ele><time>2026-04-10T10:09:49.912Z</time></trkpt><trkpt lat="43.7829183" lon="11.2100533"><ele>35.0</ele><time>2026-04-10T10:09:52.912Z</time></trkpt><trkpt lat="43.7829467" lon="11.209965"><ele>35.0</ele><time>2026-04-10T10:09:54.912Z</time></trkpt><trkpt lat="43.78299" lon="11.2098817"><ele>35.0</ele><time>2026-04-10T10:09:56.912Z</time></trkpt><trkpt lat="43.7830583" lon="11.2098033"><ele>35.0</ele><time>2026-04-10T10:09:58.912Z</time></trkpt><trkpt lat="43.7831133" lon="11.2097233"><ele>35.0</ele><time>2026-04-10T10:10:00.912Z</time></trkpt><trkpt lat="43.78316" lon="11.2096333"><ele>35.0</ele><time>2026-04-10T10:10:02.912Z</time></trkpt><trkpt lat="43.7832083" lon="11.209545"><ele>35.666666666666664</ele><time>2026-04-10T10:10:04.912Z</time></trkpt><trkpt lat="43.7832533" lon="11.2094567"><ele>36.33333333333333</ele><time>2026-04-10T10:10:06.912Z</time></trkpt><trkpt lat="43.7832933" lon="11.20936"><ele>37.0</ele><time>2026-04-10T10:10:08.912Z</time></trkpt><trkpt lat="43.7833283" lon="11.2092467"><ele>37.666666666666664</ele><time>2026-04-10T10:10:10.913Z</time></trkpt><trkpt lat="43.7833583" lon="11.20913"><ele>38.333333333333336</ele><time>2026-04-10T10:10:12.912Z</time></trkpt><trkpt lat="43.783385" lon="11.20902"><ele>39.0</ele><time>2026-04-10T10:10:14.912Z</time></trkpt><trkpt lat="43.7834067" lon="11.208915"><ele>39.333333333333336</ele><time>2026-04-10T10:10:16.912Z</time></trkpt><trkpt lat="43.7834317" lon="11.2088117"><ele>39.666666666666664</ele><time>2026-04-10T10:10:18.912Z</time></trkpt><trkpt lat="43.78347" lon="11.2087117"><ele>40.0</ele><time>2026-04-10T10:10:20.912Z</time></trkpt><trkpt lat="43.78351" lon="11.2086167"><ele>40.33333333333333</ele><time>2026-04-10T10:10:22.913Z</time></trkpt><trkpt lat="43.78356" lon="11.208515"><ele>40.666666666666664</ele><time>2026-04-10T10:10:24.912Z</time></trkpt><trkpt lat="43.7836083" lon="11.2084133"><ele>41.0</ele><time>2026-04-10T10:10:26.912Z</time></trkpt><trkpt lat="43.78365" lon="11.2083233"><ele>40.5</ele><time>2026-04-10T10:10:28.913Z</time></trkpt><trkpt lat="43.7836683" lon="11.208205"><ele>40.0</ele><time>2026-04-10T10:10:31.913Z</time></trkpt><trkpt lat="43.7836933" lon="11.2080933"><ele>39.5</ele><time>2026-04-10T10:10:34.912Z</time></trkpt><trkpt lat="43.7837367" lon="11.20798"><ele>39.0</ele><time>2026-04-10T10:10:37.912Z</time></trkpt><trkpt lat="43.7837783" lon="11.2078933"><ele>38.5</ele><time>2026-04-10T10:10:39.912Z</time></trkpt><trkpt lat="43.78382" lon="11.2078133"><ele>38.0</ele><time>2026-04-10T10:10:41.912Z</time></trkpt><trkpt lat="43.78386" lon="11.2077267"><ele>38.0</ele><time>2026-04-10T10:10:43.912Z</time></trkpt><trkpt lat="43.7839" lon="11.20764"><ele>38.0</ele><time>2026-04-10T10:10:45.912Z</time></trkpt><trkpt lat="43.7839433" lon="11.2075533"><ele>38.0</ele><time>2026-04-10T10:10:47.913Z</time></trkpt><trkpt lat="43.7839867" lon="11.2074633"><ele>38.0</ele><time>2026-04-10T10:10:49.912Z</time></trkpt><trkpt lat="43.7840267" lon="11.207375"><ele>38.0</ele><time>2026-04-10T10:10:51.912Z</time></trkpt><trkpt lat="43.7840683" lon="11.207275"><ele>38.0</ele><time>2026-04-10T10:10:53.913Z</time></trkpt><trkpt lat="43.7841183" lon="11.2071667"><ele>37.83333333333333</ele><time>2026-04-10T10:10:55.912Z</time></trkpt><trkpt lat="43.7841683" lon="11.207065"><ele>37.666666666666664</ele><time>2026-04-10T10:10:57.913Z</time></trkpt><trkpt lat="43.7842217" lon="11.2069667"><ele>37.5</ele><time>2026-04-10T10:10:59.913Z</time></trkpt><trkpt lat="43.7842617" lon="11.2068767"><ele>37.333333333333336</ele><time>2026-04-10T10:11:01.913Z</time></trkpt><trkpt lat="43.7843117" lon="11.206785"><ele>37.16666666666667</ele><time>2026-04-10T10:11:03.912Z</time></trkpt><trkpt lat="43.7843533" lon="11.2066933"><ele>37.0</ele><time>2026-04-10T10:11:05.913Z</time></trkpt><trkpt lat="43.7844" lon="11.2066"><ele>37.0</ele><time>2026-04-10T10:11:07.913Z</time></trkpt><trkpt lat="43.7844367" lon="11.2065067"><ele>37.0</ele><time>2026-04-10T10:11:09.912Z</time></trkpt><trkpt lat="43.78449" lon="11.206405"><ele>37.0</ele><time>2026-04-10T10:11:11.912Z</time></trkpt><trkpt lat="43.7845317" lon="11.2063133"><ele>37.0</ele><time>2026-04-10T10:11:13.912Z</time></trkpt><trkpt lat="43.784575" lon="11.2062117"><ele>37.0</ele><time>2026-04-10T10:11:15.912Z</time></trkpt><trkpt lat="43.7846217" lon="11.2061083"><ele>37.0</ele><time>2026-04-10T10:11:17.912Z</time></trkpt><trkpt lat="43.78467" lon="11.2060167"><ele>37.333333333333336</ele><time>2026-04-10T10:11:19.912Z</time></trkpt><trkpt lat="43.784715" lon="11.2059233"><ele>37.66666666666667</ele><time>2026-04-10T10:11:21.912Z</time></trkpt><trkpt lat="43.784765" lon="11.2058267"><ele>38.0</ele><time>2026-04-10T10:11:23.912Z</time></trkpt><trkpt lat="43.784805" lon="11.2057317"><ele>38.333333333333336</ele><time>2026-04-10T10:11:25.912Z</time></trkpt><trkpt lat="43.7848433" lon="11.2056433"><ele>38.666666666666664</ele><time>2026-04-10T10:11:27.912Z</time></trkpt><trkpt lat="43.7848833" lon="11.2055667"><ele>39.0</ele><time>2026-04-10T10:11:29.913Z</time></trkpt><trkpt lat="43.7849217" lon="11.2054817"><ele>39.0</ele><time>2026-04-10T10:11:31.912Z</time></trkpt><trkpt lat="43.78496" lon="11.2053983"><ele>39.0</ele><time>2026-04-10T10:11:33.912Z</time></trkpt><trkpt lat="43.7849967" lon="11.20532"><ele>39.0</ele><time>2026-04-10T10:11:35.912Z</time></trkpt><trkpt lat="43.7850317" lon="11.205245"><ele>39.0</ele><time>2026-04-10T10:11:37.912Z</time></trkpt><trkpt lat="43.785075" lon="11.205135"><ele>39.0</ele><time>2026-04-10T10:11:40.912Z</time></trkpt><trkpt lat="43.785085" lon="11.205025"><ele>39.0</ele><time>2026-04-10T10:11:43.912Z</time></trkpt><trkpt lat="43.7850433" lon="11.204935"><ele>39.0</ele><time>2026-04-10T10:11:46.912Z</time></trkpt><trkpt lat="43.7849817" lon="11.2049"><ele>39.0</ele><time>2026-04-10T10:11:48.912Z</time></trkpt><trkpt lat="43.78492" lon="11.204875"><ele>39.0</ele><time>2026-04-10T10:11:50.912Z</time></trkpt><trkpt lat="43.7848533" lon="11.2048383"><ele>39.0</ele><time>2026-04-10T10:11:52.912Z</time></trkpt><trkpt lat="43.7847817" lon="11.20481"><ele>39.0</ele><time>2026-04-10T10:11:54.912Z</time></trkpt><trkpt lat="43.7847067" lon="11.2047833"><ele>39.0</ele><time>2026-04-10T10:11:56.912Z</time></trkpt><trkpt lat="43.7846333" lon="11.2047533"><ele>39.0</ele><time>2026-04-10T10:11:58.913Z</time></trkpt><trkpt lat="43.7845517" lon="11.20472"><ele>39.166666666666664</ele><time>2026-04-10T10:12:00.912Z</time></trkpt><trkpt lat="43.7844683" lon="11.2046933"><ele>39.333333333333336</ele><time>2026-04-10T10:12:02.913Z</time></trkpt><trkpt lat="43.7843767" lon="11.20465"><ele>39.5</ele><time>2026-04-10T10:12:04.913Z</time></trkpt><trkpt lat="43.7842883" lon="11.20462"><ele>39.66666666666667</ele><time>2026-04-10T10:12:06.913Z</time></trkpt><trkpt lat="43.7842083" lon="11.20459"><ele>39.833333333333336</ele><time>2026-04-10T10:12:08.912Z</time></trkpt><trkpt lat="43.78412" lon="11.2045517"><ele>40.0</ele><time>2026-04-10T10:12:10.912Z</time></trkpt><trkpt lat="43.7840267" lon="11.2045167"><ele>40.0</ele><time>2026-04-10T10:12:12.912Z</time></trkpt><trkpt lat="43.783935" lon="11.204485"><ele>40.0</ele><time>2026-04-10T10:12:14.912Z</time></trkpt><trkpt lat="43.783835" lon="11.20445"><ele>40.0</ele><time>2026-04-10T10:12:16.913Z</time></trkpt><trkpt lat="43.7837317" lon="11.2044083"><ele>40.0</ele><time>2026-04-10T10:12:18.913Z</time></trkpt><trkpt lat="43.7836383" lon="11.20437"><ele>40.0</ele><time>2026-04-10T10:12:20.912Z</time></trkpt><trkpt lat="43.78354" lon="11.204325"><ele>40.0</ele><time>2026-04-10T10:12:22.913Z</time></trkpt><trkpt lat="43.783435" lon="11.2042833"><ele>40.0</ele><time>2026-04-10T10:12:24.912Z</time></trkpt><trkpt lat="43.7833367" lon="11.204255"><ele>40.0</ele><time>2026-04-10T10:12:26.913Z</time></trkpt><trkpt lat="43.783235" lon="11.2042217"><ele>40.0</ele><time>2026-04-10T10:12:28.913Z</time></trkpt><trkpt lat="43.78314" lon="11.2041833"><ele>40.0</ele><time>2026-04-10T10:12:30.912Z</time></trkpt><trkpt lat="43.7830417" lon="11.2041517"><ele>40.0</ele><time>2026-04-10T10:12:32.912Z</time></trkpt><trkpt lat="43.78295" lon="11.2041117"><ele>40.0</ele><time>2026-04-10T10:12:34.912Z</time></trkpt><trkpt lat="43.78285" lon="11.2040783"><ele>40.0</ele><time>2026-04-10T10:12:36.912Z</time></trkpt><trkpt lat="43.7827483" lon="11.2040417"><ele>40.0</ele><time>2026-04-10T10:12:38.912Z</time></trkpt><trkpt lat="43.78265" lon="11.2040067"><ele>40.0</ele><time>2026-04-10T10:12:40.913Z</time></trkpt><trkpt lat="43.7825483" lon="11.2039717"><ele>39.857142857142854</ele><time>2026-04-10T10:12:42.912Z</time></trkpt><trkpt lat="43.782475" lon="11.20394"><ele>39.714285714285715</ele><time>2026-04-10T10:12:44.911Z</time></trkpt><trkpt lat="43.78241" lon="11.2039167"><ele>39.57142857142857</ele><time>2026-04-10T10:12:46.911Z</time></trkpt><trkpt lat="43.78234" lon="11.2039083"><ele>39.42857142857143</ele><time>2026-04-10T10:12:48.911Z</time></trkpt><trkpt lat="43.7822817" lon="11.2039567"><ele>39.285714285714285</ele><time>2026-04-10T10:12:50.912Z</time></trkpt><trkpt lat="43.78224" lon="11.20405"><ele>39.142857142857146</ele><time>2026-04-10T10:12:52.911Z</time></trkpt><trkpt lat="43.782215" lon="11.2041633"><ele>39.0</ele><time>2026-04-10T10:12:54.911Z</time></trkpt><trkpt lat="43.782195" lon="11.2042817"><ele>39.0</ele><time>2026-04-10T10:12:56.911Z</time></trkpt><trkpt lat="43.782185" lon="11.2043983"><ele>39.0</ele><time>2026-04-10T10:12:58.911Z</time></trkpt><trkpt lat="43.7821583" lon="11.2045167"><ele>39.0</ele><time>2026-04-10T10:13:00.911Z</time></trkpt><trkpt lat="43.782155" lon="11.2046233"><ele>39.0</ele><time>2026-04-10T10:13:02.911Z</time></trkpt><trkpt lat="43.7821433" lon="11.2047167"><ele>39.0</ele><time>2026-04-10T10:13:04.911Z</time></trkpt><trkpt lat="43.7821183" lon="11.204815"><ele>39.0</ele><time>2026-04-10T10:13:07.911Z</time></trkpt><trkpt lat="43.782055" lon="11.2047883"><ele>39.0</ele><time>2026-04-10T10:13:12.911Z</time></trkpt><trkpt lat="43.7820517" lon="11.2046617"><ele>39.0</ele><time>2026-04-10T10:13:15.911Z</time></trkpt><trkpt lat="43.78202" lon="11.2045567"><ele>39.0</ele><time>2026-04-10T10:13:18.911Z</time></trkpt><trkpt lat="43.7819283" lon="11.2045617"><ele>39.0</ele><time>2026-04-10T10:13:21.911Z</time></trkpt><trkpt lat="43.7818633" lon="11.20456"><ele>39.0</ele><time>2026-04-10T10:13:23.911Z</time></trkpt><trkpt lat="43.7818" lon="11.204525"><ele>39.0</ele><time>2026-04-10T10:13:25.911Z</time></trkpt><trkpt lat="43.7817467" lon="11.2044767"><ele>39.0</ele><time>2026-04-10T10:13:27.911Z</time></trkpt><trkpt lat="43.781685" lon="11.2044417"><ele>39.0</ele><time>2026-04-10T10:13:29.911Z</time></trkpt><trkpt lat="43.781595" lon="11.204445"><ele>39.0</ele><time>2026-04-10T10:13:32.912Z</time></trkpt><trkpt lat="43.7815333" lon="11.204465"><ele>39.0</ele><time>2026-04-10T10:13:34.912Z</time></trkpt><trkpt lat="43.7814417" lon="11.20449"><ele>39.0</ele><time>2026-04-10T10:13:37.911Z</time></trkpt><trkpt lat="43.7813783" lon="11.2045017"><ele>39.0</ele><time>2026-04-10T10:13:39.911Z</time></trkpt><trkpt lat="43.781305" lon="11.204515"><ele>39.0</ele><time>2026-04-10T10:13:41.912Z</time></trkpt><trkpt lat="43.7812283" lon="11.204515"><ele>39.0</ele><time>2026-04-10T10:13:43.911Z</time></trkpt><trkpt lat="43.7811467" lon="11.2045233"><ele>39.0</ele><time>2026-04-10T10:13:45.911Z</time></trkpt><trkpt lat="43.7810567" lon="11.2045433"><ele>39.0</ele><time>2026-04-10T10:13:47.912Z</time></trkpt><trkpt lat="43.7809633" lon="11.204565"><ele>39.0</ele><time>2026-04-10T10:13:49.911Z</time></trkpt><trkpt lat="43.780875" lon="11.2045917"><ele>39.0</ele><time>2026-04-10T10:13:51.912Z</time></trkpt><trkpt lat="43.7807817" lon="11.2046167"><ele>38.8</ele><time>2026-04-10T10:13:53.911Z</time></trkpt><trkpt lat="43.7806883" lon="11.2046383"><ele>38.599999999999994</ele><time>2026-04-10T10:13:55.911Z</time></trkpt><trkpt lat="43.7805967" lon="11.2046533"><ele>38.4</ele><time>2026-04-10T10:13:57.911Z</time></trkpt><trkpt lat="43.780505" lon="11.204685"><ele>38.199999999999996</ele><time>2026-04-10T10:13:59.911Z</time></trkpt><trkpt lat="43.7804033" lon="11.20471"><ele>38.0</ele><time>2026-04-10T10:14:01.911Z</time></trkpt><trkpt lat="43.7803033" lon="11.20474"><ele>38.0</ele><time>2026-04-10T10:14:03.911Z</time></trkpt><trkpt lat="43.78021" lon="11.204775"><ele>38.0</ele><time>2026-04-10T10:14:05.911Z</time></trkpt><trkpt lat="43.780115" lon="11.2048"><ele>38.0</ele><time>2026-04-10T10:14:07.912Z</time></trkpt><trkpt lat="43.7800267" lon="11.2048167"><ele>38.0</ele><time>2026-04-10T10:14:09.911Z</time></trkpt><trkpt lat="43.77993" lon="11.2048517"><ele>38.0</ele><time>2026-04-10T10:14:11.912Z</time></trkpt><trkpt lat="43.7798517" lon="11.2048867"><ele>38.0</ele><time>2026-04-10T10:14:13.912Z</time></trkpt><trkpt lat="43.7797717" lon="11.2049283"><ele>38.0</ele><time>2026-04-10T10:14:15.911Z</time></trkpt><trkpt lat="43.7796967" lon="11.2049567"><ele>38.0</ele><time>2026-04-10T10:14:17.911Z</time></trkpt><trkpt lat="43.7796217" lon="11.2049467"><ele>38.0</ele><time>2026-04-10T10:14:19.912Z</time></trkpt><trkpt lat="43.779575" lon="11.2048817"><ele>38.0</ele><time>2026-04-10T10:14:21.911Z</time></trkpt><trkpt lat="43.77957" lon="11.2047883"><ele>38.0</ele><time>2026-04-10T10:14:23.911Z</time></trkpt><trkpt lat="43.7795733" lon="11.204695"><ele>38.0</ele><time>2026-04-10T10:14:25.911Z</time></trkpt><trkpt lat="43.779575" lon="11.20459"><ele>38.0</ele><time>2026-04-10T10:14:27.912Z</time></trkpt><trkpt lat="43.7795833" lon="11.204475"><ele>38.0</ele><time>2026-04-10T10:14:29.911Z</time></trkpt><trkpt lat="43.7796" lon="11.2043467"><ele>38.0</ele><time>2026-04-10T10:14:31.911Z</time></trkpt><trkpt lat="43.7796117" lon="11.2042283"><ele>38.0</ele><time>2026-04-10T10:14:33.912Z</time></trkpt><trkpt lat="43.7796217" lon="11.2041183"><ele>38.0</ele><time>2026-04-10T10:14:35.911Z</time></trkpt><trkpt lat="43.77962" lon="11.2039967"><ele>38.0</ele><time>2026-04-10T10:14:37.911Z</time></trkpt><trkpt lat="43.779615" lon="11.2038783"><ele>38.285714285714285</ele><time>2026-04-10T10:14:39.911Z</time></trkpt><trkpt lat="43.7796283" lon="11.2037767"><ele>38.57142857142858</ele><time>2026-04-10T10:14:41.911Z</time></trkpt><trkpt lat="43.7796467" lon="11.2036767"><ele>38.85714285714286</ele><time>2026-04-10T10:14:43.911Z</time></trkpt><trkpt lat="43.7796667" lon="11.2035767"><ele>39.14285714285714</ele><time>2026-04-10T10:14:45.911Z</time></trkpt><trkpt lat="43.7797033" lon="11.2034817"><ele>39.42857142857143</ele><time>2026-04-10T10:14:47.911Z</time></trkpt><trkpt lat="43.7797667" lon="11.20343"><ele>39.714285714285715</ele><time>2026-04-10T10:14:49.911Z</time></trkpt><trkpt lat="43.7798217" lon="11.2033733"><ele>40.0</ele><time>2026-04-10T10:14:51.911Z</time></trkpt><trkpt lat="43.779855" lon="11.2032633"><ele>40.0</ele><time>2026-04-10T10:14:53.912Z</time></trkpt><trkpt lat="43.7798733" lon="11.2031433"><ele>40.0</ele><time>2026-04-10T10:14:55.911Z</time></trkpt><trkpt lat="43.77989" lon="11.203035"><ele>40.0</ele><time>2026-04-10T10:14:57.911Z</time></trkpt><trkpt lat="43.7799067" lon="11.20292"><ele>40.0</ele><time>2026-04-10T10:14:59.912Z</time></trkpt><trkpt lat="43.7799133" lon="11.2028033"><ele>40.0</ele><time>2026-04-10T10:15:01.911Z</time></trkpt><trkpt lat="43.7799333" lon="11.2026883"><ele>40.0</ele><time>2026-04-10T10:15:03.912Z</time></trkpt><trkpt lat="43.77995" lon="11.2025783"><ele>40.0</ele><time>2026-04-10T10:15:05.911Z</time></trkpt><trkpt lat="43.77997" lon="11.202465"><ele>40.0</ele><time>2026-04-10T10:15:07.911Z</time></trkpt><trkpt lat="43.7799933" lon="11.20235"><ele>40.0</ele><time>2026-04-10T10:15:09.911Z</time></trkpt><trkpt lat="43.7800067" lon="11.2022333"><ele>40.0</ele><time>2026-04-10T10:15:11.911Z</time></trkpt><trkpt lat="43.78002" lon="11.2021117"><ele>40.0</ele><time>2026-04-10T10:15:13.911Z</time></trkpt><trkpt lat="43.780035" lon="11.2019983"><ele>40.0</ele><time>2026-04-10T10:15:15.912Z</time></trkpt><trkpt lat="43.78005" lon="11.2018967"><ele>40.16666666666667</ele><time>2026-04-10T10:15:17.912Z</time></trkpt><trkpt lat="43.7800633" lon="11.2018"><ele>40.333333333333336</ele><time>2026-04-10T10:15:19.911Z</time></trkpt><trkpt lat="43.7800733" lon="11.2016983"><ele>40.5</ele><time>2026-04-10T10:15:21.911Z</time></trkpt><trkpt lat="43.7800517" lon="11.2015983"><ele>40.666666666666664</ele><time>2026-04-10T10:15:24.911Z</time></trkpt><trkpt lat="43.77996" lon="11.20155"><ele>40.83333333333333</ele><time>2026-04-10T10:15:27.911Z</time></trkpt><trkpt lat="43.7798717" lon="11.20152"><ele>41.0</ele><time>2026-04-10T10:15:29.911Z</time></trkpt><trkpt lat="43.7797783" lon="11.2014683"><ele>40.83333333333333</ele><time>2026-04-10T10:15:31.911Z</time></trkpt><trkpt lat="43.7796867" lon="11.2014183"><ele>40.666666666666664</ele><time>2026-04-10T10:15:33.911Z</time></trkpt><trkpt lat="43.7796083" lon="11.20136"><ele>40.5</ele><time>2026-04-10T10:15:35.911Z</time></trkpt><trkpt lat="43.77953" lon="11.20132"><ele>40.333333333333336</ele><time>2026-04-10T10:15:37.912Z</time></trkpt><trkpt lat="43.779455" lon="11.2012817"><ele>40.16666666666667</ele><time>2026-04-10T10:15:39.911Z</time></trkpt><trkpt lat="43.77938" lon="11.2012417"><ele>40.0</ele><time>2026-04-10T10:15:41.912Z</time></trkpt><trkpt lat="43.7793017" lon="11.201205"><ele>40.0</ele><time>2026-04-10T10:15:43.912Z</time></trkpt><trkpt lat="43.779235" lon="11.2011667"><ele>40.0</ele><time>2026-04-10T10:15:45.912Z</time></trkpt><trkpt lat="43.7791567" lon="11.201115"><ele>40.0</ele><time>2026-04-10T10:15:47.912Z</time></trkpt><trkpt lat="43.7790783" lon="11.2010667"><ele>40.0</ele><time>2026-04-10T10:15:49.911Z</time></trkpt><trkpt lat="43.7790083" lon="11.2010167"><ele>40.0</ele><time>2026-04-10T10:15:51.912Z</time></trkpt><trkpt lat="43.7789517" lon="11.2009533"><ele>40.0</ele><time>2026-04-10T10:15:53.91Z</time></trkpt><trkpt lat="43.7789017" lon="11.2008933"><ele>40.0</ele><time>2026-04-10T10:15:55.91Z</time></trkpt><trkpt lat="43.778845" lon="11.2008383"><ele>40.0</ele><time>2026-04-10T10:15:57.91Z</time></trkpt><trkpt lat="43.7787833" lon="11.200795"><ele>40.0</ele><time>2026-04-10T10:15:59.91Z</time></trkpt><trkpt lat="43.7787167" lon="11.2007633"><ele>40.0</ele><time>2026-04-10T10:16:01.91Z</time></trkpt><trkpt lat="43.7786567" lon="11.2007367"><ele>40.0</ele><time>2026-04-10T10:16:03.911Z</time></trkpt><trkpt lat="43.7785717" lon="11.2006983"><ele>40.0</ele><time>2026-04-10T10:16:06.91Z</time></trkpt><trkpt lat="43.7785133" lon="11.20074"><ele>40.0</ele><time>2026-04-10T10:16:10.91Z</time></trkpt><trkpt lat="43.7784533" lon="11.200775"><ele>40.0</ele><time>2026-04-10T10:16:21.91Z</time></trkpt><trkpt lat="43.77838" lon="11.2007233"><ele>40.0</ele><time>2026-04-10T10:16:29.911Z</time></trkpt><trkpt lat="43.7783067" lon="11.2006567"><ele>40.0</ele><time>2026-04-10T10:16:32.91Z</time></trkpt><trkpt lat="43.7782483" lon="11.2006117"><ele>40.0</ele><time>2026-04-10T10:16:35.91Z</time></trkpt><trkpt lat="43.778285" lon="11.20053"><ele>40.0</ele><time>2026-04-10T10:17:35.911Z</time></trkpt><trkpt lat="43.77825" lon="11.2004433"><ele>40.0</ele><time>2026-04-10T10:17:39.911Z</time></trkpt><trkpt lat="43.7781983" lon="11.2003867"><ele>40.0</ele><time>2026-04-10T10:17:42.91Z</time></trkpt><trkpt lat="43.778155" lon="11.20032"><ele>40.0</ele><time>2026-04-10T10:17:46.91Z</time></trkpt><trkpt lat="43.7781433" lon="11.2002083"><ele>40.0</ele><time>2026-04-10T10:17:49.91Z</time></trkpt><trkpt lat="43.7780917" lon="11.2001517"><ele>40.0</ele><time>2026-04-10T10:17:53.91Z</time></trkpt><trkpt lat="43.7780017" lon="11.2001417"><ele>40.0</ele><time>2026-04-10T10:22:00.908Z</time></trkpt><trkpt lat="43.77803" lon="11.20023"><ele>40.0</ele><time>2026-04-10T10:24:01.908Z</time></trkpt><trkpt lat="43.7779767" lon="11.2001833"><ele>40.0</ele><time>2026-04-10T10:27:02.907Z</time></trkpt><trkpt lat="43.7779467" lon="11.200285"><ele>40.0</ele><time>2026-04-10T10:27:30.907Z</time></trkpt><trkpt lat="43.7779867" lon="11.2001817"><ele>40.0</ele><time>2026-04-10T10:28:53.906Z</time></trkpt><trkpt lat="43.7780383" lon="11.200115"><ele>40.0</ele><time>2026-04-10T10:29:03.906Z</time></trkpt><trkpt lat="43.777985" lon="11.20006"><ele>40.0</ele><time>2026-04-10T10:30:18.906Z</time></trkpt><trkpt lat="43.778015" lon="11.2001517"><ele>40.0</ele><time>2026-04-10T10:31:25.905Z</time></trkpt><trkpt lat="43.777985" lon="11.2002433"><ele>40.0</ele><time>2026-04-10T10:31:29.906Z</time></trkpt><trkpt lat="43.778055" lon="11.200205"><ele>40.0</ele><time>2026-04-10T10:34:52.904Z</time></trkpt><trkpt lat="43.7779917" lon="11.2001883"><ele>40.0</ele><time>2026-04-10T10:42:50.901Z</time></trkpt></trkseg></trk></gpx>